<?xml version="1.0" encoding="UTF-8" standalone="no" ?>
<gpx xmlns="http://www.topografix.com/GPX/1/1" xmlns:xsi="http://www.w3.org/2001/XMLSchema-instance" xsi:schemaLocation="http://www.topografix.com/GPX/1/1 http://www.topografix.com/GPX/1/1/gpx.xsd" version="1.1" creator="VisuGPX - https://www.visugpx.com">
  <metadata>
    <name>Combe suspendue</name>
    <desc><![CDATA[AlpineQuest Track 03/03/2019 11:05:04]]></desc>
  </metadata>
  <trk>
    <name><![CDATA[combe suspendue]]></name>
    <trkseg>
      <trkpt lat="46.20999" lon="6.57569">
        <ele>1133.6999511719</ele>
        <time>2019-03-03T10:05:04Z</time>
      </trkpt>
      <trkpt lat="46.2099" lon="6.5758">
        <ele>1117.0040283203</ele>
        <time>2019-03-03T10:09:43Z</time>
      </trkpt>
      <trkpt lat="46.20982" lon="6.57582">
        <ele>1116.8000488281</ele>
        <time>2019-03-03T10:09:49Z</time>
      </trkpt>
      <trkpt lat="46.20973" lon="6.57585">
        <ele>1117.3869628906</ele>
        <time>2019-03-03T10:09:57Z</time>
      </trkpt>
      <trkpt lat="46.20966" lon="6.57589">
        <ele>1118.4739990234</ele>
        <time>2019-03-03T10:10:04Z</time>
      </trkpt>
      <trkpt lat="46.20959" lon="6.57592">
        <ele>1118.873046875</ele>
        <time>2019-03-03T10:10:12Z</time>
      </trkpt>
      <trkpt lat="46.20952" lon="6.57595">
        <ele>1118.9079589844</ele>
        <time>2019-03-03T10:10:18Z</time>
      </trkpt>
      <trkpt lat="46.20945" lon="6.57598">
        <ele>1119.0610351562</ele>
        <time>2019-03-03T10:10:25Z</time>
      </trkpt>
      <trkpt lat="46.20937" lon="6.57601">
        <ele>1119.5810546875</ele>
        <time>2019-03-03T10:10:30Z</time>
      </trkpt>
      <trkpt lat="46.2093" lon="6.57606">
        <ele>1120.0350341797</ele>
        <time>2019-03-03T10:10:39Z</time>
      </trkpt>
      <trkpt lat="46.20924" lon="6.57613">
        <ele>1120.6860351562</ele>
        <time>2019-03-03T10:10:46Z</time>
      </trkpt>
      <trkpt lat="46.20918" lon="6.57617">
        <ele>1120.6510009766</ele>
        <time>2019-03-03T10:10:53Z</time>
      </trkpt>
      <trkpt lat="46.20913" lon="6.57625">
        <ele>1120.2419433594</ele>
        <time>2019-03-03T10:11:02Z</time>
      </trkpt>
      <trkpt lat="46.20907" lon="6.57634">
        <ele>1120.2840576172</ele>
        <time>2019-03-03T10:11:08Z</time>
      </trkpt>
      <trkpt lat="46.209" lon="6.5764">
        <ele>1120.6009521484</ele>
        <time>2019-03-03T10:11:15Z</time>
      </trkpt>
      <trkpt lat="46.20899" lon="6.5765">
        <ele>1120.7280273438</ele>
        <time>2019-03-03T10:11:23Z</time>
      </trkpt>
      <trkpt lat="46.20896" lon="6.57662">
        <ele>1122.458984375</ele>
        <time>2019-03-03T10:12:05Z</time>
      </trkpt>
      <trkpt lat="46.20896" lon="6.57673">
        <ele>1122.6040039062</ele>
        <time>2019-03-03T10:12:12Z</time>
      </trkpt>
      <trkpt lat="46.20897" lon="6.57683">
        <ele>1126.1870117188</ele>
        <time>2019-03-03T10:15:54Z</time>
      </trkpt>
      <trkpt lat="46.20902" lon="6.57693">
        <ele>1126.7810058594</ele>
        <time>2019-03-03T10:16:02Z</time>
      </trkpt>
      <trkpt lat="46.20908" lon="6.57699">
        <ele>1127.0660400391</ele>
        <time>2019-03-03T10:16:10Z</time>
      </trkpt>
      <trkpt lat="46.20913" lon="6.57691">
        <ele>1127.3990478516</ele>
        <time>2019-03-03T10:16:15Z</time>
      </trkpt>
      <trkpt lat="46.20917" lon="6.57682">
        <ele>1127.5810546875</ele>
        <time>2019-03-03T10:16:20Z</time>
      </trkpt>
      <trkpt lat="46.20923" lon="6.57674">
        <ele>1127.5190429688</ele>
        <time>2019-03-03T10:16:27Z</time>
      </trkpt>
      <trkpt lat="46.20919" lon="6.57683">
        <ele>1127.0190429688</ele>
        <time>2019-03-03T10:16:40Z</time>
      </trkpt>
      <trkpt lat="46.20916" lon="6.57693">
        <ele>1127.0939941406</ele>
        <time>2019-03-03T10:16:51Z</time>
      </trkpt>
      <trkpt lat="46.20913" lon="6.57703">
        <ele>1126.1579589844</ele>
        <time>2019-03-03T10:17:01Z</time>
      </trkpt>
      <trkpt lat="46.20909" lon="6.57713">
        <ele>1125.9069824219</ele>
        <time>2019-03-03T10:17:10Z</time>
      </trkpt>
      <trkpt lat="46.20905" lon="6.57722">
        <ele>1126.1629638672</ele>
        <time>2019-03-03T10:17:16Z</time>
      </trkpt>
      <trkpt lat="46.20903" lon="6.57733">
        <ele>1126.8900146484</ele>
        <time>2019-03-03T10:17:26Z</time>
      </trkpt>
      <trkpt lat="46.20899" lon="6.57743">
        <ele>1127.4499511719</ele>
        <time>2019-03-03T10:17:37Z</time>
      </trkpt>
      <trkpt lat="46.20897" lon="6.57754">
        <ele>1127.8840332031</ele>
        <time>2019-03-03T10:17:44Z</time>
      </trkpt>
      <trkpt lat="46.20895" lon="6.57766">
        <ele>1128.8249511719</ele>
        <time>2019-03-03T10:17:52Z</time>
      </trkpt>
      <trkpt lat="46.20892" lon="6.57776">
        <ele>1129.4890136719</ele>
        <time>2019-03-03T10:17:59Z</time>
      </trkpt>
      <trkpt lat="46.20888" lon="6.57786">
        <ele>1131.1610107422</ele>
        <time>2019-03-03T10:18:11Z</time>
      </trkpt>
      <trkpt lat="46.20885" lon="6.578">
        <ele>1134.4610595703</ele>
        <time>2019-03-03T10:18:23Z</time>
      </trkpt>
      <trkpt lat="46.20882" lon="6.57809">
        <ele>1135.7309570312</ele>
        <time>2019-03-03T10:18:30Z</time>
      </trkpt>
      <trkpt lat="46.20881" lon="6.57821">
        <ele>1136.4129638672</ele>
        <time>2019-03-03T10:18:40Z</time>
      </trkpt>
      <trkpt lat="46.20878" lon="6.57831">
        <ele>1137.2199707031</ele>
        <time>2019-03-03T10:18:48Z</time>
      </trkpt>
      <trkpt lat="46.20875" lon="6.57841">
        <ele>1140.1409912109</ele>
        <time>2019-03-03T10:18:59Z</time>
      </trkpt>
      <trkpt lat="46.20873" lon="6.57851">
        <ele>1141.8459472656</ele>
        <time>2019-03-03T10:19:08Z</time>
      </trkpt>
      <trkpt lat="46.20871" lon="6.57862">
        <ele>1143.0980224609</ele>
        <time>2019-03-03T10:19:15Z</time>
      </trkpt>
      <trkpt lat="46.20869" lon="6.57872">
        <ele>1144.7700195312</ele>
        <time>2019-03-03T10:19:26Z</time>
      </trkpt>
      <trkpt lat="46.20865" lon="6.57882">
        <ele>1146.2189941406</ele>
        <time>2019-03-03T10:19:34Z</time>
      </trkpt>
      <trkpt lat="46.2086" lon="6.5789">
        <ele>1147.4379882812</ele>
        <time>2019-03-03T10:19:45Z</time>
      </trkpt>
      <trkpt lat="46.20857" lon="6.57902">
        <ele>1148.4749755859</ele>
        <time>2019-03-03T10:19:51Z</time>
      </trkpt>
      <trkpt lat="46.20854" lon="6.57911">
        <ele>1149.376953125</ele>
        <time>2019-03-03T10:19:59Z</time>
      </trkpt>
      <trkpt lat="46.20846" lon="6.57918">
        <ele>1150.1140136719</ele>
        <time>2019-03-03T10:20:07Z</time>
      </trkpt>
      <trkpt lat="46.2084" lon="6.57927">
        <ele>1150.7060546875</ele>
        <time>2019-03-03T10:20:15Z</time>
      </trkpt>
      <trkpt lat="46.20836" lon="6.57939">
        <ele>1151.9439697266</ele>
        <time>2019-03-03T10:20:24Z</time>
      </trkpt>
      <trkpt lat="46.20827" lon="6.57946">
        <ele>1153.0830078125</ele>
        <time>2019-03-03T10:20:31Z</time>
      </trkpt>
      <trkpt lat="46.2082" lon="6.57952">
        <ele>1155.2469482422</ele>
        <time>2019-03-03T10:22:45Z</time>
      </trkpt>
      <trkpt lat="46.20813" lon="6.57958">
        <ele>1155.2080078125</ele>
        <time>2019-03-03T10:22:56Z</time>
      </trkpt>
      <trkpt lat="46.20798" lon="6.57965">
        <ele>1156.9639892578</ele>
        <time>2019-03-03T10:23:09Z</time>
      </trkpt>
      <trkpt lat="46.20792" lon="6.57973">
        <ele>1158.2740478516</ele>
        <time>2019-03-03T10:23:14Z</time>
      </trkpt>
      <trkpt lat="46.20786" lon="6.57981">
        <ele>1160.0860595703</ele>
        <time>2019-03-03T10:23:23Z</time>
      </trkpt>
      <trkpt lat="46.2078" lon="6.57987">
        <ele>1161.5980224609</ele>
        <time>2019-03-03T10:23:37Z</time>
      </trkpt>
      <trkpt lat="46.20776" lon="6.57996">
        <ele>1161.7380371094</ele>
        <time>2019-03-03T10:23:39Z</time>
      </trkpt>
      <trkpt lat="46.20773" lon="6.58006">
        <ele>1163.7159423828</ele>
        <time>2019-03-03T10:23:52Z</time>
      </trkpt>
      <trkpt lat="46.20768" lon="6.58015">
        <ele>1164.7380371094</ele>
        <time>2019-03-03T10:24:02Z</time>
      </trkpt>
      <trkpt lat="46.20761" lon="6.58022">
        <ele>1165.7640380859</ele>
        <time>2019-03-03T10:24:15Z</time>
      </trkpt>
      <trkpt lat="46.20746" lon="6.58037">
        <ele>1165.6120605469</ele>
        <time>2019-03-03T10:24:26Z</time>
      </trkpt>
      <trkpt lat="46.20739" lon="6.58043">
        <ele>1164.9219970703</ele>
        <time>2019-03-03T10:24:36Z</time>
      </trkpt>
      <trkpt lat="46.20736" lon="6.58055">
        <ele>1165.0250244141</ele>
        <time>2019-03-03T10:24:42Z</time>
      </trkpt>
      <trkpt lat="46.20729" lon="6.58063">
        <ele>1165.7230224609</ele>
        <time>2019-03-03T10:24:53Z</time>
      </trkpt>
      <trkpt lat="46.20725" lon="6.58077">
        <ele>1165.7419433594</ele>
        <time>2019-03-03T10:25:00Z</time>
      </trkpt>
      <trkpt lat="46.2072" lon="6.58086">
        <ele>1166.6899414062</ele>
        <time>2019-03-03T10:25:09Z</time>
      </trkpt>
      <trkpt lat="46.20717" lon="6.58096">
        <ele>1167.7370605469</ele>
        <time>2019-03-03T10:25:17Z</time>
      </trkpt>
      <trkpt lat="46.20712" lon="6.58106">
        <ele>1168.2629394531</ele>
        <time>2019-03-03T10:25:26Z</time>
      </trkpt>
      <trkpt lat="46.20709" lon="6.58116">
        <ele>1168.3969726562</ele>
        <time>2019-03-03T10:25:32Z</time>
      </trkpt>
      <trkpt lat="46.20704" lon="6.58125">
        <ele>1169.1340332031</ele>
        <time>2019-03-03T10:25:43Z</time>
      </trkpt>
      <trkpt lat="46.20698" lon="6.58131">
        <ele>1169.8620605469</ele>
        <time>2019-03-03T10:25:49Z</time>
      </trkpt>
      <trkpt lat="46.20693" lon="6.58137">
        <ele>1170.6450195312</ele>
        <time>2019-03-03T10:26:00Z</time>
      </trkpt>
      <trkpt lat="46.20686" lon="6.58149">
        <ele>1172.4470214844</ele>
        <time>2019-03-03T10:26:08Z</time>
      </trkpt>
      <trkpt lat="46.20676" lon="6.58165">
        <ele>1174.6770019531</ele>
        <time>2019-03-03T10:26:23Z</time>
      </trkpt>
      <trkpt lat="46.2067" lon="6.58172">
        <ele>1178.4809570312</ele>
        <time>2019-03-03T10:26:44Z</time>
      </trkpt>
      <trkpt lat="46.20665" lon="6.58184">
        <ele>1180.0169677734</ele>
        <time>2019-03-03T10:26:51Z</time>
      </trkpt>
      <trkpt lat="46.20658" lon="6.5819">
        <ele>1180.7049560547</ele>
        <time>2019-03-03T10:26:54Z</time>
      </trkpt>
      <trkpt lat="46.20651" lon="6.58192">
        <ele>1181.9639892578</ele>
        <time>2019-03-03T10:27:01Z</time>
      </trkpt>
      <trkpt lat="46.20646" lon="6.58199">
        <ele>1182.6309814453</ele>
        <time>2019-03-03T10:27:10Z</time>
      </trkpt>
      <trkpt lat="46.20639" lon="6.58207">
        <ele>1184.8139648438</ele>
        <time>2019-03-03T10:27:22Z</time>
      </trkpt>
      <trkpt lat="46.20635" lon="6.58218">
        <ele>1186.3509521484</ele>
        <time>2019-03-03T10:27:32Z</time>
      </trkpt>
      <trkpt lat="46.20632" lon="6.58227">
        <ele>1187.5799560547</ele>
        <time>2019-03-03T10:27:40Z</time>
      </trkpt>
      <trkpt lat="46.20626" lon="6.58235">
        <ele>1190.2120361328</ele>
        <time>2019-03-03T10:27:55Z</time>
      </trkpt>
      <trkpt lat="46.20619" lon="6.58244">
        <ele>1192.1910400391</ele>
        <time>2019-03-03T10:28:05Z</time>
      </trkpt>
      <trkpt lat="46.20614" lon="6.58255">
        <ele>1193.2509765625</ele>
        <time>2019-03-03T10:28:10Z</time>
      </trkpt>
      <trkpt lat="46.20606" lon="6.58272">
        <ele>1195.4129638672</ele>
        <time>2019-03-03T10:28:32Z</time>
      </trkpt>
      <trkpt lat="46.206" lon="6.58277">
        <ele>1196.5629882812</ele>
        <time>2019-03-03T10:28:43Z</time>
      </trkpt>
      <trkpt lat="46.20595" lon="6.58286">
        <ele>1197.125</ele>
        <time>2019-03-03T10:29:01Z</time>
      </trkpt>
      <trkpt lat="46.20591" lon="6.58295">
        <ele>1196.5710449219</ele>
        <time>2019-03-03T10:29:13Z</time>
      </trkpt>
      <trkpt lat="46.20586" lon="6.58304">
        <ele>1196.0909423828</ele>
        <time>2019-03-03T10:29:23Z</time>
      </trkpt>
      <trkpt lat="46.20581" lon="6.58311">
        <ele>1196.4040527344</ele>
        <time>2019-03-03T10:29:29Z</time>
      </trkpt>
      <trkpt lat="46.20577" lon="6.58322">
        <ele>1196.6870117188</ele>
        <time>2019-03-03T10:29:31Z</time>
      </trkpt>
      <trkpt lat="46.20573" lon="6.58331">
        <ele>1198.6009521484</ele>
        <time>2019-03-03T10:29:41Z</time>
      </trkpt>
      <trkpt lat="46.20569" lon="6.5834">
        <ele>1201.5729980469</ele>
        <time>2019-03-03T10:29:55Z</time>
      </trkpt>
      <trkpt lat="46.20564" lon="6.58352">
        <ele>1203.1519775391</ele>
        <time>2019-03-03T10:30:04Z</time>
      </trkpt>
      <trkpt lat="46.20556" lon="6.58361">
        <ele>1204.6669921875</ele>
        <time>2019-03-03T10:30:14Z</time>
      </trkpt>
      <trkpt lat="46.2055" lon="6.58368">
        <ele>1209.0129394531</ele>
        <time>2019-03-03T10:30:31Z</time>
      </trkpt>
      <trkpt lat="46.20543" lon="6.58372">
        <ele>1210.5489501953</ele>
        <time>2019-03-03T10:30:40Z</time>
      </trkpt>
      <trkpt lat="46.20536" lon="6.58376">
        <ele>1211.1569824219</ele>
        <time>2019-03-03T10:31:00Z</time>
      </trkpt>
      <trkpt lat="46.20527" lon="6.58373">
        <ele>1211.9129638672</ele>
        <time>2019-03-03T10:31:07Z</time>
      </trkpt>
      <trkpt lat="46.20519" lon="6.58374">
        <ele>1212.3759765625</ele>
        <time>2019-03-03T10:31:20Z</time>
      </trkpt>
      <trkpt lat="46.20512" lon="6.58374">
        <ele>1212.4219970703</ele>
        <time>2019-03-03T10:31:26Z</time>
      </trkpt>
      <trkpt lat="46.20504" lon="6.58377">
        <ele>1213.9599609375</ele>
        <time>2019-03-03T10:31:33Z</time>
      </trkpt>
      <trkpt lat="46.20498" lon="6.58383">
        <ele>1215.748046875</ele>
        <time>2019-03-03T10:31:44Z</time>
      </trkpt>
      <trkpt lat="46.20493" lon="6.58391">
        <ele>1216.7779541016</ele>
        <time>2019-03-03T10:31:49Z</time>
      </trkpt>
      <trkpt lat="46.20492" lon="6.58402">
        <ele>1217.4530029297</ele>
        <time>2019-03-03T10:32:02Z</time>
      </trkpt>
      <trkpt lat="46.20492" lon="6.58413">
        <ele>1217.8530273438</ele>
        <time>2019-03-03T10:32:11Z</time>
      </trkpt>
      <trkpt lat="46.20491" lon="6.58424">
        <ele>1218.8430175781</ele>
        <time>2019-03-03T10:32:22Z</time>
      </trkpt>
      <trkpt lat="46.20488" lon="6.58433">
        <ele>1219.4300537109</ele>
        <time>2019-03-03T10:32:34Z</time>
      </trkpt>
      <trkpt lat="46.20481" lon="6.58445">
        <ele>1219.3229980469</ele>
        <time>2019-03-03T10:32:41Z</time>
      </trkpt>
      <trkpt lat="46.20476" lon="6.58453">
        <ele>1219.8509521484</ele>
        <time>2019-03-03T10:32:48Z</time>
      </trkpt>
      <trkpt lat="46.20471" lon="6.5846">
        <ele>1221.0710449219</ele>
        <time>2019-03-03T10:33:02Z</time>
      </trkpt>
      <trkpt lat="46.20463" lon="6.58463">
        <ele>1222.083984375</ele>
        <time>2019-03-03T10:33:16Z</time>
      </trkpt>
      <trkpt lat="46.20454" lon="6.58469">
        <ele>1223.1500244141</ele>
        <time>2019-03-03T10:33:28Z</time>
      </trkpt>
      <trkpt lat="46.20447" lon="6.58472">
        <ele>1224.6629638672</ele>
        <time>2019-03-03T10:33:42Z</time>
      </trkpt>
      <trkpt lat="46.2044" lon="6.58476">
        <ele>1227.5439453125</ele>
        <time>2019-03-03T10:34:03Z</time>
      </trkpt>
      <trkpt lat="46.20433" lon="6.58477">
        <ele>1229.0670166016</ele>
        <time>2019-03-03T10:34:14Z</time>
      </trkpt>
      <trkpt lat="46.20425" lon="6.58478">
        <ele>1233.4260253906</ele>
        <time>2019-03-03T10:34:32Z</time>
      </trkpt>
      <trkpt lat="46.20407" lon="6.58489">
        <ele>1238.9859619141</ele>
        <time>2019-03-03T10:34:49Z</time>
      </trkpt>
      <trkpt lat="46.204" lon="6.58492">
        <ele>1240.3380126953</ele>
        <time>2019-03-03T10:35:12Z</time>
      </trkpt>
      <trkpt lat="46.20395" lon="6.58501">
        <ele>1239.9429931641</ele>
        <time>2019-03-03T10:35:20Z</time>
      </trkpt>
      <trkpt lat="46.20395" lon="6.58514">
        <ele>1239.3039550781</ele>
        <time>2019-03-03T10:35:27Z</time>
      </trkpt>
      <trkpt lat="46.20393" lon="6.58525">
        <ele>1237.8830566406</ele>
        <time>2019-03-03T10:35:34Z</time>
      </trkpt>
      <trkpt lat="46.20389" lon="6.58536">
        <ele>1237.6020507812</ele>
        <time>2019-03-03T10:35:48Z</time>
      </trkpt>
      <trkpt lat="46.20385" lon="6.58545">
        <ele>1239.3470458984</ele>
        <time>2019-03-03T10:36:02Z</time>
      </trkpt>
      <trkpt lat="46.20382" lon="6.58555">
        <ele>1240.7230224609</ele>
        <time>2019-03-03T10:36:14Z</time>
      </trkpt>
      <trkpt lat="46.20375" lon="6.58559">
        <ele>1243</ele>
        <time>2019-03-03T10:36:30Z</time>
      </trkpt>
      <trkpt lat="46.20369" lon="6.58564">
        <ele>1243.7960205078</ele>
        <time>2019-03-03T10:36:42Z</time>
      </trkpt>
      <trkpt lat="46.20362" lon="6.58573">
        <ele>1243.9659423828</ele>
        <time>2019-03-03T10:36:55Z</time>
      </trkpt>
      <trkpt lat="46.20355" lon="6.58576">
        <ele>1244.6569824219</ele>
        <time>2019-03-03T10:37:04Z</time>
      </trkpt>
      <trkpt lat="46.20349" lon="6.58582">
        <ele>1245.6579589844</ele>
        <time>2019-03-03T10:37:10Z</time>
      </trkpt>
      <trkpt lat="46.20341" lon="6.58586">
        <ele>1247.8029785156</ele>
        <time>2019-03-03T10:37:22Z</time>
      </trkpt>
      <trkpt lat="46.20333" lon="6.58591">
        <ele>1248.8299560547</ele>
        <time>2019-03-03T10:37:30Z</time>
      </trkpt>
      <trkpt lat="46.20326" lon="6.58594">
        <ele>1250.8039550781</ele>
        <time>2019-03-03T10:37:41Z</time>
      </trkpt>
      <trkpt lat="46.20319" lon="6.58596">
        <ele>1253.9449462891</ele>
        <time>2019-03-03T10:37:50Z</time>
      </trkpt>
      <trkpt lat="46.20312" lon="6.58601">
        <ele>1255.9730224609</ele>
        <time>2019-03-03T10:38:01Z</time>
      </trkpt>
      <trkpt lat="46.20305" lon="6.58608">
        <ele>1259.4200439453</ele>
        <time>2019-03-03T10:38:14Z</time>
      </trkpt>
      <trkpt lat="46.203" lon="6.58619">
        <ele>1260.4849853516</ele>
        <time>2019-03-03T10:38:19Z</time>
      </trkpt>
      <trkpt lat="46.20294" lon="6.58627">
        <ele>1261.8680419922</ele>
        <time>2019-03-03T10:38:31Z</time>
      </trkpt>
      <trkpt lat="46.20286" lon="6.58628">
        <ele>1262.6700439453</ele>
        <time>2019-03-03T10:38:36Z</time>
      </trkpt>
      <trkpt lat="46.2028" lon="6.58634">
        <ele>1263.0980224609</ele>
        <time>2019-03-03T10:38:45Z</time>
      </trkpt>
      <trkpt lat="46.20274" lon="6.58642">
        <ele>1262.9969482422</ele>
        <time>2019-03-03T10:38:51Z</time>
      </trkpt>
      <trkpt lat="46.20272" lon="6.58654">
        <ele>1262.5090332031</ele>
        <time>2019-03-03T10:38:58Z</time>
      </trkpt>
      <trkpt lat="46.20265" lon="6.58658">
        <ele>1262.5880126953</ele>
        <time>2019-03-03T10:39:04Z</time>
      </trkpt>
      <trkpt lat="46.20257" lon="6.5866">
        <ele>1263.498046875</ele>
        <time>2019-03-03T10:39:11Z</time>
      </trkpt>
      <trkpt lat="46.20248" lon="6.58668">
        <ele>1264.8409423828</ele>
        <time>2019-03-03T10:39:20Z</time>
      </trkpt>
      <trkpt lat="46.20245" lon="6.58677">
        <ele>1268.1590576172</ele>
        <time>2019-03-03T10:39:29Z</time>
      </trkpt>
      <trkpt lat="46.20241" lon="6.58688">
        <ele>1270.0699462891</ele>
        <time>2019-03-03T10:39:35Z</time>
      </trkpt>
      <trkpt lat="46.2024" lon="6.58701">
        <ele>1270.7180175781</ele>
        <time>2019-03-03T10:39:44Z</time>
      </trkpt>
      <trkpt lat="46.20236" lon="6.58711">
        <ele>1269.9849853516</ele>
        <time>2019-03-03T10:39:54Z</time>
      </trkpt>
      <trkpt lat="46.20232" lon="6.5872">
        <ele>1270.1240234375</ele>
        <time>2019-03-03T10:40:03Z</time>
      </trkpt>
      <trkpt lat="46.2023" lon="6.58732">
        <ele>1269.6080322266</ele>
        <time>2019-03-03T10:40:14Z</time>
      </trkpt>
      <trkpt lat="46.20227" lon="6.58742">
        <ele>1270.0739746094</ele>
        <time>2019-03-03T10:40:22Z</time>
      </trkpt>
      <trkpt lat="46.20226" lon="6.58756">
        <ele>1269.8520507812</ele>
        <time>2019-03-03T10:40:30Z</time>
      </trkpt>
      <trkpt lat="46.20221" lon="6.58767">
        <ele>1269.6600341797</ele>
        <time>2019-03-03T10:40:37Z</time>
      </trkpt>
      <trkpt lat="46.20224" lon="6.58777">
        <ele>1268.1130371094</ele>
        <time>2019-03-03T10:40:47Z</time>
      </trkpt>
      <trkpt lat="46.20212" lon="6.58794">
        <ele>1267.8170166016</ele>
        <time>2019-03-03T10:40:59Z</time>
      </trkpt>
      <trkpt lat="46.20212" lon="6.58806">
        <ele>1268.7530517578</ele>
        <time>2019-03-03T10:41:08Z</time>
      </trkpt>
      <trkpt lat="46.20211" lon="6.58817">
        <ele>1269.9780273438</ele>
        <time>2019-03-03T10:41:16Z</time>
      </trkpt>
      <trkpt lat="46.20211" lon="6.58828">
        <ele>1271.3979492188</ele>
        <time>2019-03-03T10:41:24Z</time>
      </trkpt>
      <trkpt lat="46.20206" lon="6.58839">
        <ele>1272.7130126953</ele>
        <time>2019-03-03T10:41:30Z</time>
      </trkpt>
      <trkpt lat="46.20203" lon="6.58849">
        <ele>1273.3929443359</ele>
        <time>2019-03-03T10:41:38Z</time>
      </trkpt>
      <trkpt lat="46.202" lon="6.5886">
        <ele>1273.7209472656</ele>
        <time>2019-03-03T10:41:46Z</time>
      </trkpt>
      <trkpt lat="46.20198" lon="6.58871">
        <ele>1274.3640136719</ele>
        <time>2019-03-03T10:41:52Z</time>
      </trkpt>
      <trkpt lat="46.20195" lon="6.58881">
        <ele>1274.2020263672</ele>
        <time>2019-03-03T10:41:59Z</time>
      </trkpt>
      <trkpt lat="46.20193" lon="6.58891">
        <ele>1273.8950195312</ele>
        <time>2019-03-03T10:42:06Z</time>
      </trkpt>
      <trkpt lat="46.20189" lon="6.58901">
        <ele>1273.0100097656</ele>
        <time>2019-03-03T10:42:15Z</time>
      </trkpt>
      <trkpt lat="46.20183" lon="6.58907">
        <ele>1271.7459716797</ele>
        <time>2019-03-03T10:42:22Z</time>
      </trkpt>
      <trkpt lat="46.20177" lon="6.58914">
        <ele>1269.9420166016</ele>
        <time>2019-03-03T10:42:34Z</time>
      </trkpt>
      <trkpt lat="46.20172" lon="6.58923">
        <ele>1267.9520263672</ele>
        <time>2019-03-03T10:42:43Z</time>
      </trkpt>
      <trkpt lat="46.20167" lon="6.58931">
        <ele>1267.2860107422</ele>
        <time>2019-03-03T10:42:49Z</time>
      </trkpt>
      <trkpt lat="46.20156" lon="6.58947">
        <ele>1266.6729736328</ele>
        <time>2019-03-03T10:43:01Z</time>
      </trkpt>
      <trkpt lat="46.2015" lon="6.58953">
        <ele>1266.7740478516</ele>
        <time>2019-03-03T10:43:06Z</time>
      </trkpt>
      <trkpt lat="46.20142" lon="6.58956">
        <ele>1268.0190429688</ele>
        <time>2019-03-03T10:43:15Z</time>
      </trkpt>
      <trkpt lat="46.20136" lon="6.58961">
        <ele>1267.9919433594</ele>
        <time>2019-03-03T10:43:23Z</time>
      </trkpt>
      <trkpt lat="46.2013" lon="6.58968">
        <ele>1268.2569580078</ele>
        <time>2019-03-03T10:43:30Z</time>
      </trkpt>
      <trkpt lat="46.20124" lon="6.58975">
        <ele>1268.1999511719</ele>
        <time>2019-03-03T10:43:41Z</time>
      </trkpt>
      <trkpt lat="46.20118" lon="6.58983">
        <ele>1268.458984375</ele>
        <time>2019-03-03T10:43:50Z</time>
      </trkpt>
      <trkpt lat="46.20112" lon="6.58991">
        <ele>1268.29296875</ele>
        <time>2019-03-03T10:43:57Z</time>
      </trkpt>
      <trkpt lat="46.20106" lon="6.58998">
        <ele>1267.9370117188</ele>
        <time>2019-03-03T10:44:07Z</time>
      </trkpt>
      <trkpt lat="46.20102" lon="6.59006">
        <ele>1267.7280273438</ele>
        <time>2019-03-03T10:44:15Z</time>
      </trkpt>
      <trkpt lat="46.20098" lon="6.59015">
        <ele>1267.7110595703</ele>
        <time>2019-03-03T10:44:24Z</time>
      </trkpt>
      <trkpt lat="46.20092" lon="6.59022">
        <ele>1268.0140380859</ele>
        <time>2019-03-03T10:44:32Z</time>
      </trkpt>
      <trkpt lat="46.20084" lon="6.59026">
        <ele>1268.0169677734</ele>
        <time>2019-03-03T10:44:40Z</time>
      </trkpt>
      <trkpt lat="46.20078" lon="6.59033">
        <ele>1269.0699462891</ele>
        <time>2019-03-03T10:44:50Z</time>
      </trkpt>
      <trkpt lat="46.20072" lon="6.59038">
        <ele>1269.9189453125</ele>
        <time>2019-03-03T10:44:57Z</time>
      </trkpt>
      <trkpt lat="46.20065" lon="6.59045">
        <ele>1270.4919433594</ele>
        <time>2019-03-03T10:45:06Z</time>
      </trkpt>
      <trkpt lat="46.2006" lon="6.59054">
        <ele>1271.5379638672</ele>
        <time>2019-03-03T10:45:13Z</time>
      </trkpt>
      <trkpt lat="46.20056" lon="6.59063">
        <ele>1272.6850585938</ele>
        <time>2019-03-03T10:45:20Z</time>
      </trkpt>
      <trkpt lat="46.2005" lon="6.59069">
        <ele>1273.5050048828</ele>
        <time>2019-03-03T10:45:28Z</time>
      </trkpt>
      <trkpt lat="46.20044" lon="6.59077">
        <ele>1274.5670166016</ele>
        <time>2019-03-03T10:45:38Z</time>
      </trkpt>
      <trkpt lat="46.20039" lon="6.59085">
        <ele>1275.4870605469</ele>
        <time>2019-03-03T10:45:48Z</time>
      </trkpt>
      <trkpt lat="46.20033" lon="6.59093">
        <ele>1276.3110351562</ele>
        <time>2019-03-03T10:45:57Z</time>
      </trkpt>
      <trkpt lat="46.20028" lon="6.59101">
        <ele>1276.0920410156</ele>
        <time>2019-03-03T10:46:09Z</time>
      </trkpt>
      <trkpt lat="46.20025" lon="6.5911">
        <ele>1275.7220458984</ele>
        <time>2019-03-03T10:46:16Z</time>
      </trkpt>
      <trkpt lat="46.20019" lon="6.59118">
        <ele>1275.0770263672</ele>
        <time>2019-03-03T10:46:26Z</time>
      </trkpt>
      <trkpt lat="46.20014" lon="6.59126">
        <ele>1274.8890380859</ele>
        <time>2019-03-03T10:46:34Z</time>
      </trkpt>
      <trkpt lat="46.2001" lon="6.59136">
        <ele>1275.4329833984</ele>
        <time>2019-03-03T10:46:41Z</time>
      </trkpt>
      <trkpt lat="46.20005" lon="6.59145">
        <ele>1276.0450439453</ele>
        <time>2019-03-03T10:46:47Z</time>
      </trkpt>
      <trkpt lat="46.19999" lon="6.59152">
        <ele>1277.6800537109</ele>
        <time>2019-03-03T10:46:59Z</time>
      </trkpt>
      <trkpt lat="46.19993" lon="6.59158">
        <ele>1280.8909912109</ele>
        <time>2019-03-03T10:47:10Z</time>
      </trkpt>
      <trkpt lat="46.19987" lon="6.59166">
        <ele>1282.2840576172</ele>
        <time>2019-03-03T10:47:20Z</time>
      </trkpt>
      <trkpt lat="46.19983" lon="6.59175">
        <ele>1283.3540039062</ele>
        <time>2019-03-03T10:47:33Z</time>
      </trkpt>
      <trkpt lat="46.19976" lon="6.59176">
        <ele>1290.0419921875</ele>
        <time>2019-03-03T10:55:47Z</time>
      </trkpt>
      <trkpt lat="46.19969" lon="6.59181">
        <ele>1291.3270263672</ele>
        <time>2019-03-03T10:58:26Z</time>
      </trkpt>
      <trkpt lat="46.19965" lon="6.59192">
        <ele>1290.9520263672</ele>
        <time>2019-03-03T10:58:35Z</time>
      </trkpt>
      <trkpt lat="46.19962" lon="6.59202">
        <ele>1291.0849609375</ele>
        <time>2019-03-03T10:58:42Z</time>
      </trkpt>
      <trkpt lat="46.19957" lon="6.59211">
        <ele>1293.8859863281</ele>
        <time>2019-03-03T10:58:59Z</time>
      </trkpt>
      <trkpt lat="46.19951" lon="6.59221">
        <ele>1297.5980224609</ele>
        <time>2019-03-03T10:59:44Z</time>
      </trkpt>
      <trkpt lat="46.19946" lon="6.59229">
        <ele>1300.2080078125</ele>
        <time>2019-03-03T10:59:57Z</time>
      </trkpt>
      <trkpt lat="46.19935" lon="6.59247">
        <ele>1306.3809814453</ele>
        <time>2019-03-03T11:00:14Z</time>
      </trkpt>
      <trkpt lat="46.19928" lon="6.59255">
        <ele>1309.2559814453</ele>
        <time>2019-03-03T11:00:27Z</time>
      </trkpt>
      <trkpt lat="46.19924" lon="6.59267">
        <ele>1309.4870605469</ele>
        <time>2019-03-03T11:00:35Z</time>
      </trkpt>
      <trkpt lat="46.1992" lon="6.59276">
        <ele>1311.0629882812</ele>
        <time>2019-03-03T11:00:47Z</time>
      </trkpt>
      <trkpt lat="46.19918" lon="6.59286">
        <ele>1311.7840576172</ele>
        <time>2019-03-03T11:00:55Z</time>
      </trkpt>
      <trkpt lat="46.19914" lon="6.59295">
        <ele>1311.0439453125</ele>
        <time>2019-03-03T11:01:12Z</time>
      </trkpt>
      <trkpt lat="46.19911" lon="6.59305">
        <ele>1310.4410400391</ele>
        <time>2019-03-03T11:01:28Z</time>
      </trkpt>
      <trkpt lat="46.1991" lon="6.59316">
        <ele>1310.2800292969</ele>
        <time>2019-03-03T11:01:38Z</time>
      </trkpt>
      <trkpt lat="46.19916" lon="6.59324">
        <ele>1310.5389404297</ele>
        <time>2019-03-03T11:01:45Z</time>
      </trkpt>
      <trkpt lat="46.19919" lon="6.59335">
        <ele>1313.4019775391</ele>
        <time>2019-03-03T11:02:18Z</time>
      </trkpt>
      <trkpt lat="46.19921" lon="6.59345">
        <ele>1313.1610107422</ele>
        <time>2019-03-03T11:02:23Z</time>
      </trkpt>
      <trkpt lat="46.19924" lon="6.59355">
        <ele>1310.66796875</ele>
        <time>2019-03-03T11:02:52Z</time>
      </trkpt>
      <trkpt lat="46.19926" lon="6.59365">
        <ele>1311.2540283203</ele>
        <time>2019-03-03T11:03:09Z</time>
      </trkpt>
      <trkpt lat="46.19929" lon="6.59375">
        <ele>1311.373046875</ele>
        <time>2019-03-03T11:03:18Z</time>
      </trkpt>
      <trkpt lat="46.1993" lon="6.59387">
        <ele>1312.8809814453</ele>
        <time>2019-03-03T11:03:36Z</time>
      </trkpt>
      <trkpt lat="46.19936" lon="6.59393">
        <ele>1316.8950195312</ele>
        <time>2019-03-03T11:03:56Z</time>
      </trkpt>
      <trkpt lat="46.19936" lon="6.59405">
        <ele>1318.3280029297</ele>
        <time>2019-03-03T11:04:26Z</time>
      </trkpt>
      <trkpt lat="46.19939" lon="6.59415">
        <ele>1319.4730224609</ele>
        <time>2019-03-03T11:04:38Z</time>
      </trkpt>
      <trkpt lat="46.19936" lon="6.59427">
        <ele>1321.5109863281</ele>
        <time>2019-03-03T11:04:53Z</time>
      </trkpt>
      <trkpt lat="46.19939" lon="6.59438">
        <ele>1324.7290039062</ele>
        <time>2019-03-03T11:05:09Z</time>
      </trkpt>
      <trkpt lat="46.19938" lon="6.59448">
        <ele>1328.5909423828</ele>
        <time>2019-03-03T11:05:26Z</time>
      </trkpt>
      <trkpt lat="46.19935" lon="6.59458">
        <ele>1331.9940185547</ele>
        <time>2019-03-03T11:05:40Z</time>
      </trkpt>
      <trkpt lat="46.19931" lon="6.59471">
        <ele>1335.1070556641</ele>
        <time>2019-03-03T11:06:01Z</time>
      </trkpt>
      <trkpt lat="46.1993" lon="6.59482">
        <ele>1337.8160400391</ele>
        <time>2019-03-03T11:06:21Z</time>
      </trkpt>
      <trkpt lat="46.19929" lon="6.59493">
        <ele>1339.9530029297</ele>
        <time>2019-03-03T11:06:37Z</time>
      </trkpt>
      <trkpt lat="46.19933" lon="6.59502">
        <ele>1344.0090332031</ele>
        <time>2019-03-03T11:06:57Z</time>
      </trkpt>
      <trkpt lat="46.19937" lon="6.59511">
        <ele>1347.0989990234</ele>
        <time>2019-03-03T11:07:10Z</time>
      </trkpt>
      <trkpt lat="46.19941" lon="6.5952">
        <ele>1348.9940185547</ele>
        <time>2019-03-03T11:07:20Z</time>
      </trkpt>
      <trkpt lat="46.19941" lon="6.59532">
        <ele>1355.2729492188</ele>
        <time>2019-03-03T11:07:44Z</time>
      </trkpt>
      <trkpt lat="46.19939" lon="6.59542">
        <ele>1357.4539794922</ele>
        <time>2019-03-03T11:08:13Z</time>
      </trkpt>
      <trkpt lat="46.19941" lon="6.59554">
        <ele>1360.4129638672</ele>
        <time>2019-03-03T11:08:28Z</time>
      </trkpt>
      <trkpt lat="46.19943" lon="6.59564">
        <ele>1361.2829589844</ele>
        <time>2019-03-03T11:08:34Z</time>
      </trkpt>
      <trkpt lat="46.19944" lon="6.59575">
        <ele>1363.6390380859</ele>
        <time>2019-03-03T11:08:42Z</time>
      </trkpt>
      <trkpt lat="46.1995" lon="6.59582">
        <ele>1367.3640136719</ele>
        <time>2019-03-03T11:08:54Z</time>
      </trkpt>
      <trkpt lat="46.19955" lon="6.59592">
        <ele>1370.8919677734</ele>
        <time>2019-03-03T11:09:09Z</time>
      </trkpt>
      <trkpt lat="46.19962" lon="6.59598">
        <ele>1372.7130126953</ele>
        <time>2019-03-03T11:09:22Z</time>
      </trkpt>
      <trkpt lat="46.19964" lon="6.59609">
        <ele>1374.8530273438</ele>
        <time>2019-03-03T11:09:45Z</time>
      </trkpt>
      <trkpt lat="46.1997" lon="6.59621">
        <ele>1375.3409423828</ele>
        <time>2019-03-03T11:09:52Z</time>
      </trkpt>
      <trkpt lat="46.19977" lon="6.59626">
        <ele>1378.6090087891</ele>
        <time>2019-03-03T11:10:10Z</time>
      </trkpt>
      <trkpt lat="46.19971" lon="6.59635">
        <ele>1383.5699462891</ele>
        <time>2019-03-03T11:12:35Z</time>
      </trkpt>
      <trkpt lat="46.19966" lon="6.59644">
        <ele>1388.2819824219</ele>
        <time>2019-03-03T11:12:58Z</time>
      </trkpt>
      <trkpt lat="46.19969" lon="6.59655">
        <ele>1391.0100097656</ele>
        <time>2019-03-03T11:13:04Z</time>
      </trkpt>
      <trkpt lat="46.19966" lon="6.59668">
        <ele>1400.4200439453</ele>
        <time>2019-03-03T11:13:35Z</time>
      </trkpt>
      <trkpt lat="46.19961" lon="6.59677">
        <ele>1408.8509521484</ele>
        <time>2019-03-03T11:14:04Z</time>
      </trkpt>
      <trkpt lat="46.19966" lon="6.597">
        <ele>1417.2010498047</ele>
        <time>2019-03-03T11:14:44Z</time>
      </trkpt>
      <trkpt lat="46.19974" lon="6.59703">
        <ele>1418.8819580078</ele>
        <time>2019-03-03T11:14:53Z</time>
      </trkpt>
      <trkpt lat="46.1998" lon="6.59709">
        <ele>1420.0560302734</ele>
        <time>2019-03-03T11:15:26Z</time>
      </trkpt>
      <trkpt lat="46.19985" lon="6.59718">
        <ele>1422.2280273438</ele>
        <time>2019-03-03T11:15:40Z</time>
      </trkpt>
      <trkpt lat="46.19981" lon="6.59728">
        <ele>1424.2960205078</ele>
        <time>2019-03-03T11:16:02Z</time>
      </trkpt>
      <trkpt lat="46.19975" lon="6.59733">
        <ele>1425.2829589844</ele>
        <time>2019-03-03T11:16:13Z</time>
      </trkpt>
      <trkpt lat="46.19979" lon="6.59743">
        <ele>1427.0860595703</ele>
        <time>2019-03-03T11:16:19Z</time>
      </trkpt>
      <trkpt lat="46.19977" lon="6.59754">
        <ele>1430.2659912109</ele>
        <time>2019-03-03T11:16:45Z</time>
      </trkpt>
      <trkpt lat="46.19979" lon="6.59764">
        <ele>1429.1639404297</ele>
        <time>2019-03-03T11:17:05Z</time>
      </trkpt>
      <trkpt lat="46.19981" lon="6.59775">
        <ele>1431.0269775391</ele>
        <time>2019-03-03T11:17:40Z</time>
      </trkpt>
      <trkpt lat="46.19979" lon="6.59786">
        <ele>1434.3139648438</ele>
        <time>2019-03-03T11:18:05Z</time>
      </trkpt>
      <trkpt lat="46.19982" lon="6.59796">
        <ele>1437.1390380859</ele>
        <time>2019-03-03T11:18:40Z</time>
      </trkpt>
      <trkpt lat="46.19984" lon="6.59806">
        <ele>1439.4780273438</ele>
        <time>2019-03-03T11:18:52Z</time>
      </trkpt>
      <trkpt lat="46.19987" lon="6.59816">
        <ele>1443.1030273438</ele>
        <time>2019-03-03T11:19:47Z</time>
      </trkpt>
      <trkpt lat="46.19994" lon="6.59819">
        <ele>1447.9479980469</ele>
        <time>2019-03-03T11:20:08Z</time>
      </trkpt>
      <trkpt lat="46.20003" lon="6.59818">
        <ele>1449.2290039062</ele>
        <time>2019-03-03T11:20:14Z</time>
      </trkpt>
      <trkpt lat="46.2001" lon="6.59819">
        <ele>1454.4709472656</ele>
        <time>2019-03-03T11:20:32Z</time>
      </trkpt>
      <trkpt lat="46.20011" lon="6.5983">
        <ele>1462.5400390625</ele>
        <time>2019-03-03T11:21:04Z</time>
      </trkpt>
      <trkpt lat="46.20008" lon="6.5984">
        <ele>1464.3160400391</ele>
        <time>2019-03-03T11:21:17Z</time>
      </trkpt>
      <trkpt lat="46.20009" lon="6.59851">
        <ele>1469.8220214844</ele>
        <time>2019-03-03T11:21:52Z</time>
      </trkpt>
      <trkpt lat="46.20008" lon="6.59862">
        <ele>1471.7540283203</ele>
        <time>2019-03-03T11:22:08Z</time>
      </trkpt>
      <trkpt lat="46.2001" lon="6.59883">
        <ele>1474.2950439453</ele>
        <time>2019-03-03T11:22:27Z</time>
      </trkpt>
      <trkpt lat="46.20013" lon="6.59893">
        <ele>1478.5319824219</ele>
        <time>2019-03-03T11:22:40Z</time>
      </trkpt>
      <trkpt lat="46.20011" lon="6.59903">
        <ele>1480.8139648438</ele>
        <time>2019-03-03T11:22:59Z</time>
      </trkpt>
      <trkpt lat="46.20011" lon="6.59914">
        <ele>1479.2580566406</ele>
        <time>2019-03-03T11:23:18Z</time>
      </trkpt>
      <trkpt lat="46.20008" lon="6.59923">
        <ele>1480.7099609375</ele>
        <time>2019-03-03T11:23:35Z</time>
      </trkpt>
      <trkpt lat="46.20007" lon="6.59936">
        <ele>1484.0419921875</ele>
        <time>2019-03-03T11:23:48Z</time>
      </trkpt>
      <trkpt lat="46.20015" lon="6.59938">
        <ele>1486.7719726562</ele>
        <time>2019-03-03T11:24:07Z</time>
      </trkpt>
      <trkpt lat="46.20023" lon="6.59935">
        <ele>1487.6280517578</ele>
        <time>2019-03-03T11:24:12Z</time>
      </trkpt>
      <trkpt lat="46.2003" lon="6.59932">
        <ele>1489.2829589844</ele>
        <time>2019-03-03T11:24:33Z</time>
      </trkpt>
      <trkpt lat="46.20037" lon="6.59924">
        <ele>1490.1739501953</ele>
        <time>2019-03-03T11:24:44Z</time>
      </trkpt>
      <trkpt lat="46.20043" lon="6.59929">
        <ele>1492.1120605469</ele>
        <time>2019-03-03T11:25:13Z</time>
      </trkpt>
      <trkpt lat="46.20044" lon="6.59941">
        <ele>1493.2130126953</ele>
        <time>2019-03-03T11:25:23Z</time>
      </trkpt>
      <trkpt lat="46.20041" lon="6.59951">
        <ele>1496.1879882812</ele>
        <time>2019-03-03T11:25:39Z</time>
      </trkpt>
      <trkpt lat="46.20036" lon="6.59963">
        <ele>1499.6080322266</ele>
        <time>2019-03-03T11:25:59Z</time>
      </trkpt>
      <trkpt lat="46.20033" lon="6.59973">
        <ele>1501.6590576172</ele>
        <time>2019-03-03T11:26:08Z</time>
      </trkpt>
      <trkpt lat="46.20029" lon="6.59982">
        <ele>1502.958984375</ele>
        <time>2019-03-03T11:26:17Z</time>
      </trkpt>
      <trkpt lat="46.20032" lon="6.59992">
        <ele>1505.8079833984</ele>
        <time>2019-03-03T11:26:32Z</time>
      </trkpt>
      <trkpt lat="46.2003" lon="6.60002">
        <ele>1508.6390380859</ele>
        <time>2019-03-03T11:26:48Z</time>
      </trkpt>
      <trkpt lat="46.20027" lon="6.60012">
        <ele>1509.9169921875</ele>
        <time>2019-03-03T11:26:58Z</time>
      </trkpt>
      <trkpt lat="46.20026" lon="6.60023">
        <ele>1510.91796875</ele>
        <time>2019-03-03T11:27:07Z</time>
      </trkpt>
      <trkpt lat="46.20024" lon="6.60033">
        <ele>1514.208984375</ele>
        <time>2019-03-03T11:27:22Z</time>
      </trkpt>
      <trkpt lat="46.20025" lon="6.60043">
        <ele>1515.7569580078</ele>
        <time>2019-03-03T11:27:33Z</time>
      </trkpt>
      <trkpt lat="46.20027" lon="6.60054">
        <ele>1516.6590576172</ele>
        <time>2019-03-03T11:27:43Z</time>
      </trkpt>
      <trkpt lat="46.20027" lon="6.60064">
        <ele>1517.95703125</ele>
        <time>2019-03-03T11:27:51Z</time>
      </trkpt>
      <trkpt lat="46.20027" lon="6.60075">
        <ele>1520.4680175781</ele>
        <time>2019-03-03T11:28:08Z</time>
      </trkpt>
      <trkpt lat="46.20028" lon="6.60085">
        <ele>1521.9389648438</ele>
        <time>2019-03-03T11:28:23Z</time>
      </trkpt>
      <trkpt lat="46.20033" lon="6.60094">
        <ele>1521.8349609375</ele>
        <time>2019-03-03T11:28:38Z</time>
      </trkpt>
      <trkpt lat="46.20036" lon="6.60104">
        <ele>1523.0200195312</ele>
        <time>2019-03-03T11:28:52Z</time>
      </trkpt>
      <trkpt lat="46.20035" lon="6.60115">
        <ele>1525.5</ele>
        <time>2019-03-03T11:29:08Z</time>
      </trkpt>
      <trkpt lat="46.20032" lon="6.60125">
        <ele>1526.9429931641</ele>
        <time>2019-03-03T11:29:19Z</time>
      </trkpt>
      <trkpt lat="46.20028" lon="6.60134">
        <ele>1528.6899414062</ele>
        <time>2019-03-03T11:29:31Z</time>
      </trkpt>
      <trkpt lat="46.20022" lon="6.60141">
        <ele>1530.0999755859</ele>
        <time>2019-03-03T11:29:38Z</time>
      </trkpt>
      <trkpt lat="46.20016" lon="6.60148">
        <ele>1531.2239990234</ele>
        <time>2019-03-03T11:29:47Z</time>
      </trkpt>
      <trkpt lat="46.2001" lon="6.60155">
        <ele>1533.2309570312</ele>
        <time>2019-03-03T11:30:02Z</time>
      </trkpt>
      <trkpt lat="46.19998" lon="6.60168">
        <ele>1536.2270507812</ele>
        <time>2019-03-03T11:36:33Z</time>
      </trkpt>
      <trkpt lat="46.19994" lon="6.60179">
        <ele>1537.5570068359</ele>
        <time>2019-03-03T11:36:44Z</time>
      </trkpt>
      <trkpt lat="46.19991" lon="6.60189">
        <ele>1538.6600341797</ele>
        <time>2019-03-03T11:36:51Z</time>
      </trkpt>
      <trkpt lat="46.1999" lon="6.602">
        <ele>1537.4670410156</ele>
        <time>2019-03-03T11:38:33Z</time>
      </trkpt>
      <trkpt lat="46.19984" lon="6.60208">
        <ele>1537.7039794922</ele>
        <time>2019-03-03T11:38:37Z</time>
      </trkpt>
      <trkpt lat="46.19975" lon="6.60228">
        <ele>1538.3990478516</ele>
        <time>2019-03-03T11:38:43Z</time>
      </trkpt>
      <trkpt lat="46.19973" lon="6.60238">
        <ele>1538.708984375</ele>
        <time>2019-03-03T11:38:48Z</time>
      </trkpt>
      <trkpt lat="46.19971" lon="6.60249">
        <ele>1538.8879394531</ele>
        <time>2019-03-03T11:38:53Z</time>
      </trkpt>
      <trkpt lat="46.19969" lon="6.60259">
        <ele>1539.1710205078</ele>
        <time>2019-03-03T11:39:00Z</time>
      </trkpt>
      <trkpt lat="46.19969" lon="6.60271">
        <ele>1539.2919921875</ele>
        <time>2019-03-03T11:39:05Z</time>
      </trkpt>
      <trkpt lat="46.19967" lon="6.60282">
        <ele>1538.9899902344</ele>
        <time>2019-03-03T11:39:11Z</time>
      </trkpt>
      <trkpt lat="46.19968" lon="6.60292">
        <ele>1538.9940185547</ele>
        <time>2019-03-03T11:39:17Z</time>
      </trkpt>
      <trkpt lat="46.19969" lon="6.60303">
        <ele>1537.7159423828</ele>
        <time>2019-03-03T11:39:26Z</time>
      </trkpt>
      <trkpt lat="46.19971" lon="6.60313">
        <ele>1538.3000488281</ele>
        <time>2019-03-03T11:39:36Z</time>
      </trkpt>
      <trkpt lat="46.19975" lon="6.60335">
        <ele>1540.2819824219</ele>
        <time>2019-03-03T11:39:47Z</time>
      </trkpt>
      <trkpt lat="46.19977" lon="6.60346">
        <ele>1542.8089599609</ele>
        <time>2019-03-03T11:39:59Z</time>
      </trkpt>
      <trkpt lat="46.19977" lon="6.60357">
        <ele>1543.498046875</ele>
        <time>2019-03-03T11:40:12Z</time>
      </trkpt>
      <trkpt lat="46.19968" lon="6.60363">
        <ele>1540.9649658203</ele>
        <time>2019-03-03T11:40:27Z</time>
      </trkpt>
      <trkpt lat="46.1996" lon="6.60368">
        <ele>1538.7430419922</ele>
        <time>2019-03-03T11:40:41Z</time>
      </trkpt>
      <trkpt lat="46.19954" lon="6.60376">
        <ele>1538.2340087891</ele>
        <time>2019-03-03T11:40:51Z</time>
      </trkpt>
      <trkpt lat="46.19948" lon="6.60383">
        <ele>1537.1049804688</ele>
        <time>2019-03-03T11:41:00Z</time>
      </trkpt>
      <trkpt lat="46.19944" lon="6.60392">
        <ele>1535.7440185547</ele>
        <time>2019-03-03T11:41:10Z</time>
      </trkpt>
      <trkpt lat="46.19941" lon="6.60402">
        <ele>1535.4639892578</ele>
        <time>2019-03-03T11:41:21Z</time>
      </trkpt>
      <trkpt lat="46.19934" lon="6.60411">
        <ele>1535.3139648438</ele>
        <time>2019-03-03T11:41:27Z</time>
      </trkpt>
      <trkpt lat="46.19934" lon="6.60421">
        <ele>1535.166015625</ele>
        <time>2019-03-03T11:41:36Z</time>
      </trkpt>
      <trkpt lat="46.19932" lon="6.60432">
        <ele>1535.2600097656</ele>
        <time>2019-03-03T11:41:42Z</time>
      </trkpt>
      <trkpt lat="46.19931" lon="6.60442">
        <ele>1536.8869628906</ele>
        <time>2019-03-03T11:42:12Z</time>
      </trkpt>
      <trkpt lat="46.19929" lon="6.60453">
        <ele>1536.4300537109</ele>
        <time>2019-03-03T11:42:18Z</time>
      </trkpt>
      <trkpt lat="46.19931" lon="6.60468">
        <ele>1536.1810302734</ele>
        <time>2019-03-03T11:42:22Z</time>
      </trkpt>
      <trkpt lat="46.19934" lon="6.60478">
        <ele>1536.0240478516</ele>
        <time>2019-03-03T11:42:29Z</time>
      </trkpt>
      <trkpt lat="46.19934" lon="6.60492">
        <ele>1535.8680419922</ele>
        <time>2019-03-03T11:42:33Z</time>
      </trkpt>
      <trkpt lat="46.19931" lon="6.60511">
        <ele>1535.9300537109</ele>
        <time>2019-03-03T11:42:45Z</time>
      </trkpt>
      <trkpt lat="46.19922" lon="6.60519">
        <ele>1534.6949462891</ele>
        <time>2019-03-03T11:42:53Z</time>
      </trkpt>
      <trkpt lat="46.19915" lon="6.60524">
        <ele>1534.8280029297</ele>
        <time>2019-03-03T11:43:01Z</time>
      </trkpt>
      <trkpt lat="46.19908" lon="6.60529">
        <ele>1535.625</ele>
        <time>2019-03-03T11:43:10Z</time>
      </trkpt>
      <trkpt lat="46.19905" lon="6.60541">
        <ele>1535.3380126953</ele>
        <time>2019-03-03T11:43:18Z</time>
      </trkpt>
      <trkpt lat="46.19906" lon="6.60552">
        <ele>1535.0729980469</ele>
        <time>2019-03-03T11:43:24Z</time>
      </trkpt>
      <trkpt lat="46.19906" lon="6.60563">
        <ele>1536.5369873047</ele>
        <time>2019-03-03T11:43:39Z</time>
      </trkpt>
      <trkpt lat="46.19906" lon="6.60577">
        <ele>1537.2409667969</ele>
        <time>2019-03-03T11:43:45Z</time>
      </trkpt>
      <trkpt lat="46.19908" lon="6.60588">
        <ele>1537.3199462891</ele>
        <time>2019-03-03T11:43:57Z</time>
      </trkpt>
      <trkpt lat="46.19912" lon="6.60596">
        <ele>1539.4639892578</ele>
        <time>2019-03-03T11:44:23Z</time>
      </trkpt>
      <trkpt lat="46.19915" lon="6.60607">
        <ele>1539.5629882812</ele>
        <time>2019-03-03T11:44:35Z</time>
      </trkpt>
      <trkpt lat="46.19919" lon="6.60617">
        <ele>1538.6130371094</ele>
        <time>2019-03-03T11:44:43Z</time>
      </trkpt>
      <trkpt lat="46.19923" lon="6.60625">
        <ele>1538.5340576172</ele>
        <time>2019-03-03T11:44:55Z</time>
      </trkpt>
      <trkpt lat="46.19913" lon="6.60626">
        <ele>1538.9890136719</ele>
        <time>2019-03-03T11:46:06Z</time>
      </trkpt>
      <trkpt lat="46.19906" lon="6.60637">
        <ele>1535.4019775391</ele>
        <time>2019-03-03T11:46:27Z</time>
      </trkpt>
      <trkpt lat="46.19894" lon="6.6065">
        <ele>1533.9260253906</ele>
        <time>2019-03-03T11:46:33Z</time>
      </trkpt>
      <trkpt lat="46.19888" lon="6.60659">
        <ele>1528.7320556641</ele>
        <time>2019-03-03T11:46:47Z</time>
      </trkpt>
      <trkpt lat="46.19878" lon="6.60677">
        <ele>1521.2110595703</ele>
        <time>2019-03-03T11:47:05Z</time>
      </trkpt>
      <trkpt lat="46.19871" lon="6.60681">
        <ele>1518.416015625</ele>
        <time>2019-03-03T11:47:20Z</time>
      </trkpt>
      <trkpt lat="46.19865" lon="6.60688">
        <ele>1517.2490234375</ele>
        <time>2019-03-03T11:47:37Z</time>
      </trkpt>
      <trkpt lat="46.19859" lon="6.60692">
        <ele>1521.416015625</ele>
        <time>2019-03-03T11:48:00Z</time>
      </trkpt>
      <trkpt lat="46.19854" lon="6.60701">
        <ele>1523.1500244141</ele>
        <time>2019-03-03T11:48:15Z</time>
      </trkpt>
      <trkpt lat="46.19845" lon="6.60708">
        <ele>1521.6710205078</ele>
        <time>2019-03-03T11:48:23Z</time>
      </trkpt>
      <trkpt lat="46.19839" lon="6.60715">
        <ele>1519.6300048828</ele>
        <time>2019-03-03T11:48:41Z</time>
      </trkpt>
      <trkpt lat="46.19834" lon="6.60723">
        <ele>1524.8020019531</ele>
        <time>2019-03-03T11:49:13Z</time>
      </trkpt>
      <trkpt lat="46.19828" lon="6.60731">
        <ele>1526.5799560547</ele>
        <time>2019-03-03T11:49:30Z</time>
      </trkpt>
      <trkpt lat="46.19824" lon="6.60741">
        <ele>1527.3020019531</ele>
        <time>2019-03-03T11:49:39Z</time>
      </trkpt>
      <trkpt lat="46.19819" lon="6.60748">
        <ele>1529.2769775391</ele>
        <time>2019-03-03T11:50:03Z</time>
      </trkpt>
      <trkpt lat="46.19811" lon="6.60749">
        <ele>1531.5159912109</ele>
        <time>2019-03-03T11:50:22Z</time>
      </trkpt>
      <trkpt lat="46.19804" lon="6.60751">
        <ele>1536.3189697266</ele>
        <time>2019-03-03T11:50:36Z</time>
      </trkpt>
      <trkpt lat="46.19798" lon="6.60759">
        <ele>1540.0460205078</ele>
        <time>2019-03-03T11:50:49Z</time>
      </trkpt>
      <trkpt lat="46.1979" lon="6.60761">
        <ele>1544.08203125</ele>
        <time>2019-03-03T11:51:12Z</time>
      </trkpt>
      <trkpt lat="46.19782" lon="6.60768">
        <ele>1554.7530517578</ele>
        <time>2019-03-03T11:51:39Z</time>
      </trkpt>
      <trkpt lat="46.19775" lon="6.60779">
        <ele>1556.7790527344</ele>
        <time>2019-03-03T11:51:45Z</time>
      </trkpt>
      <trkpt lat="46.19769" lon="6.60783">
        <ele>1563.6829833984</ele>
        <time>2019-03-03T11:52:22Z</time>
      </trkpt>
      <trkpt lat="46.19761" lon="6.6079">
        <ele>1568.9620361328</ele>
        <time>2019-03-03T11:52:39Z</time>
      </trkpt>
      <trkpt lat="46.19754" lon="6.60793">
        <ele>1572.6689453125</ele>
        <time>2019-03-03T11:52:54Z</time>
      </trkpt>
      <trkpt lat="46.19747" lon="6.60797">
        <ele>1577.8890380859</ele>
        <time>2019-03-03T11:53:25Z</time>
      </trkpt>
      <trkpt lat="46.1974" lon="6.608">
        <ele>1582.0510253906</ele>
        <time>2019-03-03T11:53:43Z</time>
      </trkpt>
      <trkpt lat="46.19734" lon="6.60791">
        <ele>1586.873046875</ele>
        <time>2019-03-03T12:02:33Z</time>
      </trkpt>
      <trkpt lat="46.19727" lon="6.60789">
        <ele>1588.6379394531</ele>
        <time>2019-03-03T12:06:59Z</time>
      </trkpt>
      <trkpt lat="46.1972" lon="6.60792">
        <ele>1587.3020019531</ele>
        <time>2019-03-03T12:07:19Z</time>
      </trkpt>
      <trkpt lat="46.19711" lon="6.60794">
        <ele>1587.7380371094</ele>
        <time>2019-03-03T12:07:44Z</time>
      </trkpt>
      <trkpt lat="46.19704" lon="6.60798">
        <ele>1590.6059570312</ele>
        <time>2019-03-03T12:08:10Z</time>
      </trkpt>
      <trkpt lat="46.19698" lon="6.60804">
        <ele>1592.4560546875</ele>
        <time>2019-03-03T12:08:51Z</time>
      </trkpt>
      <trkpt lat="46.197" lon="6.60815">
        <ele>1595.0069580078</ele>
        <time>2019-03-03T12:09:15Z</time>
      </trkpt>
      <trkpt lat="46.197" lon="6.60826">
        <ele>1597.3680419922</ele>
        <time>2019-03-03T12:09:23Z</time>
      </trkpt>
      <trkpt lat="46.19693" lon="6.60828">
        <ele>1612.5350341797</ele>
        <time>2019-03-03T12:10:55Z</time>
      </trkpt>
      <trkpt lat="46.19687" lon="6.60822">
        <ele>1614.2550048828</ele>
        <time>2019-03-03T12:11:12Z</time>
      </trkpt>
      <trkpt lat="46.19678" lon="6.60817">
        <ele>1614.8050537109</ele>
        <time>2019-03-03T12:11:35Z</time>
      </trkpt>
      <trkpt lat="46.19671" lon="6.60813">
        <ele>1615.4069824219</ele>
        <time>2019-03-03T12:12:02Z</time>
      </trkpt>
      <trkpt lat="46.19665" lon="6.60805">
        <ele>1617.5109863281</ele>
        <time>2019-03-03T12:12:20Z</time>
      </trkpt>
      <trkpt lat="46.19657" lon="6.60804">
        <ele>1622.0799560547</ele>
        <time>2019-03-03T12:13:07Z</time>
      </trkpt>
      <trkpt lat="46.19653" lon="6.60794">
        <ele>1624.1889648438</ele>
        <time>2019-03-03T12:13:39Z</time>
      </trkpt>
      <trkpt lat="46.19646" lon="6.60799">
        <ele>1624.1240234375</ele>
        <time>2019-03-03T12:14:18Z</time>
      </trkpt>
      <trkpt lat="46.19643" lon="6.60809">
        <ele>1624.8189697266</ele>
        <time>2019-03-03T12:14:35Z</time>
      </trkpt>
      <trkpt lat="46.19634" lon="6.60826">
        <ele>1633.8480224609</ele>
        <time>2019-03-03T12:15:12Z</time>
      </trkpt>
      <trkpt lat="46.19628" lon="6.60831">
        <ele>1640.6400146484</ele>
        <time>2019-03-03T12:15:52Z</time>
      </trkpt>
      <trkpt lat="46.19622" lon="6.60825">
        <ele>1646.2590332031</ele>
        <time>2019-03-03T12:16:31Z</time>
      </trkpt>
      <trkpt lat="46.19619" lon="6.60835">
        <ele>1649.5980224609</ele>
        <time>2019-03-03T12:17:26Z</time>
      </trkpt>
      <trkpt lat="46.19613" lon="6.60829">
        <ele>1650.6910400391</ele>
        <time>2019-03-03T12:17:38Z</time>
      </trkpt>
      <trkpt lat="46.19612" lon="6.60839">
        <ele>1648.7590332031</ele>
        <time>2019-03-03T12:17:58Z</time>
      </trkpt>
      <trkpt lat="46.19612" lon="6.6085">
        <ele>1647.6710205078</ele>
        <time>2019-03-03T12:18:11Z</time>
      </trkpt>
      <trkpt lat="46.19615" lon="6.6086">
        <ele>1649.0880126953</ele>
        <time>2019-03-03T12:18:23Z</time>
      </trkpt>
      <trkpt lat="46.19612" lon="6.60871">
        <ele>1652.4360351562</ele>
        <time>2019-03-03T12:18:35Z</time>
      </trkpt>
      <trkpt lat="46.1961" lon="6.6086">
        <ele>1658.6340332031</ele>
        <time>2019-03-03T12:19:11Z</time>
      </trkpt>
      <trkpt lat="46.19602" lon="6.60863">
        <ele>1661.6650390625</ele>
        <time>2019-03-03T12:19:31Z</time>
      </trkpt>
      <trkpt lat="46.19606" lon="6.60872">
        <ele>1667.1450195312</ele>
        <time>2019-03-03T12:19:54Z</time>
      </trkpt>
      <trkpt lat="46.19599" lon="6.60877">
        <ele>1673.8630371094</ele>
        <time>2019-03-03T12:20:52Z</time>
      </trkpt>
      <trkpt lat="46.19597" lon="6.60887">
        <ele>1673.8029785156</ele>
        <time>2019-03-03T12:21:43Z</time>
      </trkpt>
      <trkpt lat="46.19595" lon="6.60897">
        <ele>1678.5350341797</ele>
        <time>2019-03-03T12:21:59Z</time>
      </trkpt>
      <trkpt lat="46.19592" lon="6.6091">
        <ele>1681.1330566406</ele>
        <time>2019-03-03T12:22:10Z</time>
      </trkpt>
      <trkpt lat="46.1959" lon="6.6092">
        <ele>1681.6669921875</ele>
        <time>2019-03-03T12:22:31Z</time>
      </trkpt>
      <trkpt lat="46.19588" lon="6.6093">
        <ele>1685.2390136719</ele>
        <time>2019-03-03T12:23:15Z</time>
      </trkpt>
      <trkpt lat="46.19581" lon="6.60924">
        <ele>1688.4539794922</ele>
        <time>2019-03-03T12:24:07Z</time>
      </trkpt>
      <trkpt lat="46.19574" lon="6.6092">
        <ele>1688.7509765625</ele>
        <time>2019-03-03T12:24:48Z</time>
      </trkpt>
      <trkpt lat="46.19568" lon="6.60914">
        <ele>1692.4749755859</ele>
        <time>2019-03-03T12:25:16Z</time>
      </trkpt>
      <trkpt lat="46.19566" lon="6.60925">
        <ele>1696.7149658203</ele>
        <time>2019-03-03T12:26:12Z</time>
      </trkpt>
      <trkpt lat="46.19568" lon="6.60935">
        <ele>1702.5040283203</ele>
        <time>2019-03-03T12:29:57Z</time>
      </trkpt>
      <trkpt lat="46.19564" lon="6.60945">
        <ele>1707.7669677734</ele>
        <time>2019-03-03T12:38:56Z</time>
      </trkpt>
      <trkpt lat="46.19562" lon="6.60935">
        <ele>1706.3669433594</ele>
        <time>2019-03-03T12:39:30Z</time>
      </trkpt>
      <trkpt lat="46.19558" lon="6.60926">
        <ele>1706.0310058594</ele>
        <time>2019-03-03T12:39:42Z</time>
      </trkpt>
      <trkpt lat="46.19554" lon="6.60917">
        <ele>1706.2850341797</ele>
        <time>2019-03-03T12:39:53Z</time>
      </trkpt>
      <trkpt lat="46.19553" lon="6.60907">
        <ele>1706.9780273438</ele>
        <time>2019-03-03T12:40:03Z</time>
      </trkpt>
      <trkpt lat="46.19551" lon="6.60897">
        <ele>1707.1910400391</ele>
        <time>2019-03-03T12:40:21Z</time>
      </trkpt>
      <trkpt lat="46.19548" lon="6.60887">
        <ele>1705.7569580078</ele>
        <time>2019-03-03T12:40:44Z</time>
      </trkpt>
      <trkpt lat="46.19548" lon="6.60876">
        <ele>1706.7729492188</ele>
        <time>2019-03-03T12:40:59Z</time>
      </trkpt>
      <trkpt lat="46.19545" lon="6.60866">
        <ele>1707.9129638672</ele>
        <time>2019-03-03T12:41:13Z</time>
      </trkpt>
      <trkpt lat="46.19544" lon="6.60856">
        <ele>1710.8809814453</ele>
        <time>2019-03-03T12:41:39Z</time>
      </trkpt>
      <trkpt lat="46.19539" lon="6.60847">
        <ele>1712.8120117188</ele>
        <time>2019-03-03T12:41:54Z</time>
      </trkpt>
      <trkpt lat="46.19532" lon="6.60851">
        <ele>1713.2199707031</ele>
        <time>2019-03-03T12:42:45Z</time>
      </trkpt>
      <trkpt lat="46.19534" lon="6.6084">
        <ele>1713.0930175781</ele>
        <time>2019-03-03T12:42:56Z</time>
      </trkpt>
      <trkpt lat="46.19534" lon="6.6083">
        <ele>1714.0649414062</ele>
        <time>2019-03-03T12:43:04Z</time>
      </trkpt>
      <trkpt lat="46.19531" lon="6.6082">
        <ele>1717.6929931641</ele>
        <time>2019-03-03T12:44:02Z</time>
      </trkpt>
      <trkpt lat="46.19523" lon="6.60817">
        <ele>1717.6999511719</ele>
        <time>2019-03-03T12:44:14Z</time>
      </trkpt>
      <trkpt lat="46.1952" lon="6.60807">
        <ele>1718.6400146484</ele>
        <time>2019-03-03T12:44:34Z</time>
      </trkpt>
      <trkpt lat="46.19516" lon="6.60798">
        <ele>1718.6290283203</ele>
        <time>2019-03-03T12:44:42Z</time>
      </trkpt>
      <trkpt lat="46.19511" lon="6.60791">
        <ele>1719.0930175781</ele>
        <time>2019-03-03T12:44:50Z</time>
      </trkpt>
      <trkpt lat="46.19507" lon="6.60781">
        <ele>1718.8360595703</ele>
        <time>2019-03-03T12:45:02Z</time>
      </trkpt>
      <trkpt lat="46.19504" lon="6.60772">
        <ele>1719.66796875</ele>
        <time>2019-03-03T12:45:14Z</time>
      </trkpt>
      <trkpt lat="46.195" lon="6.60763">
        <ele>1720.8289794922</ele>
        <time>2019-03-03T12:45:26Z</time>
      </trkpt>
      <trkpt lat="46.19497" lon="6.60754">
        <ele>1722.2600097656</ele>
        <time>2019-03-03T12:45:41Z</time>
      </trkpt>
      <trkpt lat="46.19497" lon="6.60743">
        <ele>1722.5539550781</ele>
        <time>2019-03-03T12:45:54Z</time>
      </trkpt>
      <trkpt lat="46.19492" lon="6.60735">
        <ele>1723.8800048828</ele>
        <time>2019-03-03T12:46:10Z</time>
      </trkpt>
      <trkpt lat="46.19488" lon="6.60726">
        <ele>1725.5710449219</ele>
        <time>2019-03-03T12:46:29Z</time>
      </trkpt>
      <trkpt lat="46.19487" lon="6.60715">
        <ele>1727.4250488281</ele>
        <time>2019-03-03T12:46:50Z</time>
      </trkpt>
      <trkpt lat="46.19484" lon="6.60705">
        <ele>1729.8979492188</ele>
        <time>2019-03-03T12:47:05Z</time>
      </trkpt>
      <trkpt lat="46.19481" lon="6.60696">
        <ele>1732.8520507812</ele>
        <time>2019-03-03T12:47:21Z</time>
      </trkpt>
      <trkpt lat="46.19476" lon="6.60687">
        <ele>1733.9000244141</ele>
        <time>2019-03-03T12:47:34Z</time>
      </trkpt>
      <trkpt lat="46.19472" lon="6.60678">
        <ele>1736.0699462891</ele>
        <time>2019-03-03T12:47:51Z</time>
      </trkpt>
      <trkpt lat="46.19469" lon="6.60668">
        <ele>1737.6259765625</ele>
        <time>2019-03-03T12:48:05Z</time>
      </trkpt>
      <trkpt lat="46.19465" lon="6.60659">
        <ele>1739.6650390625</ele>
        <time>2019-03-03T12:48:23Z</time>
      </trkpt>
      <trkpt lat="46.1946" lon="6.6065">
        <ele>1741.1650390625</ele>
        <time>2019-03-03T12:48:37Z</time>
      </trkpt>
      <trkpt lat="46.19458" lon="6.6064">
        <ele>1743.0600585938</ele>
        <time>2019-03-03T12:48:59Z</time>
      </trkpt>
      <trkpt lat="46.19458" lon="6.6063">
        <ele>1746.6510009766</ele>
        <time>2019-03-03T12:49:26Z</time>
      </trkpt>
      <trkpt lat="46.19452" lon="6.60622">
        <ele>1749.4029541016</ele>
        <time>2019-03-03T12:49:42Z</time>
      </trkpt>
      <trkpt lat="46.19448" lon="6.60613">
        <ele>1751.7039794922</ele>
        <time>2019-03-03T12:49:59Z</time>
      </trkpt>
      <trkpt lat="46.19444" lon="6.60604">
        <ele>1753.0489501953</ele>
        <time>2019-03-03T12:50:10Z</time>
      </trkpt>
      <trkpt lat="46.19443" lon="6.60594">
        <ele>1754.5419921875</ele>
        <time>2019-03-03T12:50:26Z</time>
      </trkpt>
      <trkpt lat="46.1944" lon="6.60584">
        <ele>1755.8699951172</ele>
        <time>2019-03-03T12:50:38Z</time>
      </trkpt>
      <trkpt lat="46.19439" lon="6.60573">
        <ele>1756.8070068359</ele>
        <time>2019-03-03T12:50:55Z</time>
      </trkpt>
      <trkpt lat="46.19441" lon="6.60563">
        <ele>1758.7609863281</ele>
        <time>2019-03-03T12:51:10Z</time>
      </trkpt>
      <trkpt lat="46.19442" lon="6.60552">
        <ele>1760.5620117188</ele>
        <time>2019-03-03T12:51:26Z</time>
      </trkpt>
      <trkpt lat="46.19444" lon="6.60541">
        <ele>1763.0179443359</ele>
        <time>2019-03-03T12:51:39Z</time>
      </trkpt>
      <trkpt lat="46.19446" lon="6.60531">
        <ele>1765.9320068359</ele>
        <time>2019-03-03T12:52:01Z</time>
      </trkpt>
      <trkpt lat="46.19448" lon="6.60521">
        <ele>1768.6059570312</ele>
        <time>2019-03-03T12:52:18Z</time>
      </trkpt>
      <trkpt lat="46.1945" lon="6.6051">
        <ele>1771.16796875</ele>
        <time>2019-03-03T12:52:40Z</time>
      </trkpt>
      <trkpt lat="46.19454" lon="6.60501">
        <ele>1774.1120605469</ele>
        <time>2019-03-03T12:52:57Z</time>
      </trkpt>
      <trkpt lat="46.19461" lon="6.60498">
        <ele>1777.3940429688</ele>
        <time>2019-03-03T12:53:15Z</time>
      </trkpt>
      <trkpt lat="46.19461" lon="6.60487">
        <ele>1779.583984375</ele>
        <time>2019-03-03T12:53:31Z</time>
      </trkpt>
      <trkpt lat="46.19457" lon="6.60495">
        <ele>1779.3890380859</ele>
        <time>2019-03-03T12:54:20Z</time>
      </trkpt>
      <trkpt lat="46.19461" lon="6.60486">
        <ele>1779.9899902344</ele>
        <time>2019-03-03T12:55:12Z</time>
      </trkpt>
      <trkpt lat="46.19454" lon="6.60481">
        <ele>1781.3089599609</ele>
        <time>2019-03-03T12:58:07Z</time>
      </trkpt>
      <trkpt lat="46.19448" lon="6.60474">
        <ele>1781.4210205078</ele>
        <time>2019-03-03T12:58:22Z</time>
      </trkpt>
      <trkpt lat="46.19442" lon="6.60468">
        <ele>1782.6340332031</ele>
        <time>2019-03-03T12:58:43Z</time>
      </trkpt>
      <trkpt lat="46.19436" lon="6.60463">
        <ele>1783.3220214844</ele>
        <time>2019-03-03T12:59:07Z</time>
      </trkpt>
      <trkpt lat="46.19429" lon="6.60459">
        <ele>1785.3809814453</ele>
        <time>2019-03-03T12:59:31Z</time>
      </trkpt>
      <trkpt lat="46.19433" lon="6.6045">
        <ele>1789.1999511719</ele>
        <time>2019-03-03T13:00:00Z</time>
      </trkpt>
      <trkpt lat="46.19436" lon="6.6044">
        <ele>1791.5150146484</ele>
        <time>2019-03-03T13:00:15Z</time>
      </trkpt>
      <trkpt lat="46.1944" lon="6.60432">
        <ele>1794.3879394531</ele>
        <time>2019-03-03T13:00:32Z</time>
      </trkpt>
      <trkpt lat="46.19436" lon="6.60423">
        <ele>1796.5439453125</ele>
        <time>2019-03-03T13:00:46Z</time>
      </trkpt>
      <trkpt lat="46.19432" lon="6.60413">
        <ele>1798.8879394531</ele>
        <time>2019-03-03T13:01:09Z</time>
      </trkpt>
      <trkpt lat="46.19425" lon="6.60407">
        <ele>1799.5360107422</ele>
        <time>2019-03-03T13:01:22Z</time>
      </trkpt>
      <trkpt lat="46.19421" lon="6.60398">
        <ele>1801.3149414062</ele>
        <time>2019-03-03T13:01:43Z</time>
      </trkpt>
      <trkpt lat="46.19417" lon="6.6039">
        <ele>1801.8609619141</ele>
        <time>2019-03-03T13:01:55Z</time>
      </trkpt>
      <trkpt lat="46.19413" lon="6.6038">
        <ele>1803.6359863281</ele>
        <time>2019-03-03T13:02:09Z</time>
      </trkpt>
      <trkpt lat="46.19409" lon="6.60371">
        <ele>1806.2060546875</ele>
        <time>2019-03-03T13:02:30Z</time>
      </trkpt>
      <trkpt lat="46.19404" lon="6.60363">
        <ele>1808.1669921875</ele>
        <time>2019-03-03T13:02:47Z</time>
      </trkpt>
      <trkpt lat="46.19399" lon="6.60356">
        <ele>1809.8530273438</ele>
        <time>2019-03-03T13:03:09Z</time>
      </trkpt>
      <trkpt lat="46.19392" lon="6.60352">
        <ele>1810.8950195312</ele>
        <time>2019-03-03T13:03:27Z</time>
      </trkpt>
      <trkpt lat="46.19385" lon="6.60351">
        <ele>1811.5119628906</ele>
        <time>2019-03-03T13:03:48Z</time>
      </trkpt>
      <trkpt lat="46.19379" lon="6.60344">
        <ele>1811.8780517578</ele>
        <time>2019-03-03T13:03:58Z</time>
      </trkpt>
      <trkpt lat="46.19372" lon="6.6034">
        <ele>1812.998046875</ele>
        <time>2019-03-03T13:04:12Z</time>
      </trkpt>
      <trkpt lat="46.19365" lon="6.60336">
        <ele>1814.5739746094</ele>
        <time>2019-03-03T13:05:04Z</time>
      </trkpt>
      <trkpt lat="46.1936" lon="6.60328">
        <ele>1816.2989501953</ele>
        <time>2019-03-03T13:05:20Z</time>
      </trkpt>
      <trkpt lat="46.19353" lon="6.60323">
        <ele>1818.7370605469</ele>
        <time>2019-03-03T13:05:35Z</time>
      </trkpt>
      <trkpt lat="46.19348" lon="6.60315">
        <ele>1821.2159423828</ele>
        <time>2019-03-03T13:05:48Z</time>
      </trkpt>
      <trkpt lat="46.19342" lon="6.60308">
        <ele>1823.5550537109</ele>
        <time>2019-03-03T13:06:05Z</time>
      </trkpt>
      <trkpt lat="46.19336" lon="6.60301">
        <ele>1825.4790039062</ele>
        <time>2019-03-03T13:06:21Z</time>
      </trkpt>
      <trkpt lat="46.19331" lon="6.60293">
        <ele>1828.8249511719</ele>
        <time>2019-03-03T13:06:47Z</time>
      </trkpt>
      <trkpt lat="46.19325" lon="6.60286">
        <ele>1829.8509521484</ele>
        <time>2019-03-03T13:06:58Z</time>
      </trkpt>
      <trkpt lat="46.19319" lon="6.6028">
        <ele>1831.9210205078</ele>
        <time>2019-03-03T13:07:16Z</time>
      </trkpt>
      <trkpt lat="46.19314" lon="6.60272">
        <ele>1834.0439453125</ele>
        <time>2019-03-03T13:07:31Z</time>
      </trkpt>
      <trkpt lat="46.19309" lon="6.60264">
        <ele>1837.1839599609</ele>
        <time>2019-03-03T13:07:55Z</time>
      </trkpt>
      <trkpt lat="46.19305" lon="6.60255">
        <ele>1840.0920410156</ele>
        <time>2019-03-03T13:08:14Z</time>
      </trkpt>
      <trkpt lat="46.19299" lon="6.60248">
        <ele>1843.6710205078</ele>
        <time>2019-03-03T13:08:35Z</time>
      </trkpt>
      <trkpt lat="46.19294" lon="6.60241">
        <ele>1844.9510498047</ele>
        <time>2019-03-03T13:08:51Z</time>
      </trkpt>
      <trkpt lat="46.19287" lon="6.60236">
        <ele>1846.5169677734</ele>
        <time>2019-03-03T13:09:06Z</time>
      </trkpt>
      <trkpt lat="46.19281" lon="6.6023">
        <ele>1848.0739746094</ele>
        <time>2019-03-03T13:09:23Z</time>
      </trkpt>
      <trkpt lat="46.19274" lon="6.60225">
        <ele>1849.66796875</ele>
        <time>2019-03-03T13:09:45Z</time>
      </trkpt>
      <trkpt lat="46.19269" lon="6.60217">
        <ele>1851.1910400391</ele>
        <time>2019-03-03T13:09:59Z</time>
      </trkpt>
      <trkpt lat="46.19265" lon="6.60208">
        <ele>1853.9239501953</ele>
        <time>2019-03-03T13:10:16Z</time>
      </trkpt>
      <trkpt lat="46.1926" lon="6.60201">
        <ele>1856.3559570312</ele>
        <time>2019-03-03T13:10:32Z</time>
      </trkpt>
      <trkpt lat="46.19253" lon="6.60197">
        <ele>1859.3850097656</ele>
        <time>2019-03-03T13:10:55Z</time>
      </trkpt>
      <trkpt lat="46.19248" lon="6.60188">
        <ele>1862.3969726562</ele>
        <time>2019-03-03T13:11:15Z</time>
      </trkpt>
      <trkpt lat="46.19241" lon="6.60185">
        <ele>1865.7110595703</ele>
        <time>2019-03-03T13:11:36Z</time>
      </trkpt>
      <trkpt lat="46.19235" lon="6.60181">
        <ele>1867.8969726562</ele>
        <time>2019-03-03T13:12:00Z</time>
      </trkpt>
      <trkpt lat="46.19228" lon="6.60176">
        <ele>1870.1159667969</ele>
        <time>2019-03-03T13:12:20Z</time>
      </trkpt>
      <trkpt lat="46.19221" lon="6.60172">
        <ele>1875.5629882812</ele>
        <time>2019-03-03T13:13:37Z</time>
      </trkpt>
      <trkpt lat="46.19215" lon="6.60165">
        <ele>1877.666015625</ele>
        <time>2019-03-03T13:14:06Z</time>
      </trkpt>
      <trkpt lat="46.19211" lon="6.60156">
        <ele>1882.0279541016</ele>
        <time>2019-03-03T13:14:33Z</time>
      </trkpt>
      <trkpt lat="46.19205" lon="6.60149">
        <ele>1884.9830322266</ele>
        <time>2019-03-03T13:15:05Z</time>
      </trkpt>
      <trkpt lat="46.19198" lon="6.60145">
        <ele>1887.7170410156</ele>
        <time>2019-03-03T13:15:22Z</time>
      </trkpt>
      <trkpt lat="46.19191" lon="6.60145">
        <ele>1889.8229980469</ele>
        <time>2019-03-03T13:15:43Z</time>
      </trkpt>
      <trkpt lat="46.19184" lon="6.60144">
        <ele>1891.8310546875</ele>
        <time>2019-03-03T13:16:07Z</time>
      </trkpt>
      <trkpt lat="46.19176" lon="6.60141">
        <ele>1894.5629882812</ele>
        <time>2019-03-03T13:16:28Z</time>
      </trkpt>
      <trkpt lat="46.19169" lon="6.6014">
        <ele>1896.4350585938</ele>
        <time>2019-03-03T13:16:49Z</time>
      </trkpt>
      <trkpt lat="46.19162" lon="6.60137">
        <ele>1899.8349609375</ele>
        <time>2019-03-03T13:17:16Z</time>
      </trkpt>
      <trkpt lat="46.19154" lon="6.60138">
        <ele>1902.9890136719</ele>
        <time>2019-03-03T13:17:42Z</time>
      </trkpt>
      <trkpt lat="46.19148" lon="6.60133">
        <ele>1906.7270507812</ele>
        <time>2019-03-03T13:18:03Z</time>
      </trkpt>
      <trkpt lat="46.19141" lon="6.60138">
        <ele>1909.5989990234</ele>
        <time>2019-03-03T13:18:29Z</time>
      </trkpt>
      <trkpt lat="46.19135" lon="6.60143">
        <ele>1912.6590576172</ele>
        <time>2019-03-03T13:18:58Z</time>
      </trkpt>
      <trkpt lat="46.19127" lon="6.60147">
        <ele>1915.2390136719</ele>
        <time>2019-03-03T13:19:19Z</time>
      </trkpt>
      <trkpt lat="46.19121" lon="6.60152">
        <ele>1919.2580566406</ele>
        <time>2019-03-03T13:19:46Z</time>
      </trkpt>
      <trkpt lat="46.19113" lon="6.60155">
        <ele>1922.1149902344</ele>
        <time>2019-03-03T13:20:16Z</time>
      </trkpt>
      <trkpt lat="46.19108" lon="6.60147">
        <ele>1925.9859619141</ele>
        <time>2019-03-03T13:20:47Z</time>
      </trkpt>
      <trkpt lat="46.19106" lon="6.60137">
        <ele>1928.498046875</ele>
        <time>2019-03-03T13:21:04Z</time>
      </trkpt>
      <trkpt lat="46.19105" lon="6.60127">
        <ele>1931.9959716797</ele>
        <time>2019-03-03T13:21:24Z</time>
      </trkpt>
      <trkpt lat="46.19101" lon="6.60118">
        <ele>1934.4549560547</ele>
        <time>2019-03-03T13:21:52Z</time>
      </trkpt>
      <trkpt lat="46.19094" lon="6.60122">
        <ele>1935.5069580078</ele>
        <time>2019-03-03T13:22:13Z</time>
      </trkpt>
      <trkpt lat="46.19088" lon="6.60128">
        <ele>1937.6979980469</ele>
        <time>2019-03-03T13:22:33Z</time>
      </trkpt>
      <trkpt lat="46.19083" lon="6.60135">
        <ele>1941.1369628906</ele>
        <time>2019-03-03T13:22:56Z</time>
      </trkpt>
      <trkpt lat="46.19075" lon="6.60138">
        <ele>1943.0319824219</ele>
        <time>2019-03-03T13:23:16Z</time>
      </trkpt>
      <trkpt lat="46.19074" lon="6.60127">
        <ele>1945.3969726562</ele>
        <time>2019-03-03T13:23:36Z</time>
      </trkpt>
      <trkpt lat="46.19072" lon="6.60117">
        <ele>1947.5770263672</ele>
        <time>2019-03-03T13:23:55Z</time>
      </trkpt>
      <trkpt lat="46.19066" lon="6.6011">
        <ele>1950.5980224609</ele>
        <time>2019-03-03T13:24:38Z</time>
      </trkpt>
      <trkpt lat="46.1906" lon="6.60116">
        <ele>1952.0119628906</ele>
        <time>2019-03-03T13:25:10Z</time>
      </trkpt>
      <trkpt lat="46.19057" lon="6.60125">
        <ele>1953.4270019531</ele>
        <time>2019-03-03T13:25:29Z</time>
      </trkpt>
      <trkpt lat="46.19051" lon="6.60132">
        <ele>1954.9969482422</ele>
        <time>2019-03-03T13:26:00Z</time>
      </trkpt>
      <trkpt lat="46.19045" lon="6.60138">
        <ele>1957.7700195312</ele>
        <time>2019-03-03T13:26:18Z</time>
      </trkpt>
      <trkpt lat="46.19039" lon="6.60145">
        <ele>1960.7740478516</ele>
        <time>2019-03-03T13:26:37Z</time>
      </trkpt>
      <trkpt lat="46.19037" lon="6.60155">
        <ele>1963.9530029297</ele>
        <time>2019-03-03T13:26:58Z</time>
      </trkpt>
      <trkpt lat="46.19033" lon="6.60164">
        <ele>1967.1879882812</ele>
        <time>2019-03-03T13:27:21Z</time>
      </trkpt>
      <trkpt lat="46.19031" lon="6.60174">
        <ele>1969.0789794922</ele>
        <time>2019-03-03T13:27:48Z</time>
      </trkpt>
      <trkpt lat="46.19027" lon="6.60183">
        <ele>1971.8310546875</ele>
        <time>2019-03-03T13:28:15Z</time>
      </trkpt>
      <trkpt lat="46.19025" lon="6.60194">
        <ele>1974.0369873047</ele>
        <time>2019-03-03T13:28:43Z</time>
      </trkpt>
      <trkpt lat="46.19019" lon="6.60188">
        <ele>1977.1500244141</ele>
        <time>2019-03-03T13:29:59Z</time>
      </trkpt>
      <trkpt lat="46.1902" lon="6.60177">
        <ele>1977.2509765625</ele>
        <time>2019-03-03T13:30:20Z</time>
      </trkpt>
      <trkpt lat="46.1902" lon="6.60166">
        <ele>1977.2020263672</ele>
        <time>2019-03-03T13:30:35Z</time>
      </trkpt>
      <trkpt lat="46.19025" lon="6.60158">
        <ele>1978.7580566406</ele>
        <time>2019-03-03T13:31:01Z</time>
      </trkpt>
      <trkpt lat="46.1902" lon="6.6015">
        <ele>1980.5810546875</ele>
        <time>2019-03-03T13:31:29Z</time>
      </trkpt>
      <trkpt lat="46.19016" lon="6.60141">
        <ele>1981.4229736328</ele>
        <time>2019-03-03T13:31:56Z</time>
      </trkpt>
      <trkpt lat="46.19014" lon="6.60131">
        <ele>1982.5140380859</ele>
        <time>2019-03-03T13:32:18Z</time>
      </trkpt>
      <trkpt lat="46.19014" lon="6.60121">
        <ele>1984.1889648438</ele>
        <time>2019-03-03T13:32:55Z</time>
      </trkpt>
      <trkpt lat="46.19008" lon="6.60125">
        <ele>1986.5780029297</ele>
        <time>2019-03-03T13:34:15Z</time>
      </trkpt>
      <trkpt lat="46.19002" lon="6.60134">
        <ele>1996.5389404297</ele>
        <time>2019-03-03T14:20:11Z</time>
      </trkpt>
      <trkpt lat="46.18996" lon="6.60141">
        <ele>1998.9649658203</ele>
        <time>2019-03-03T14:20:44Z</time>
      </trkpt>
      <trkpt lat="46.18991" lon="6.6015">
        <ele>2002.8649902344</ele>
        <time>2019-03-03T14:21:41Z</time>
      </trkpt>
      <trkpt lat="46.1899" lon="6.60161">
        <ele>2006.4670410156</ele>
        <time>2019-03-03T14:25:59Z</time>
      </trkpt>
      <trkpt lat="46.18987" lon="6.60173">
        <ele>2005.9090576172</ele>
        <time>2019-03-03T14:26:04Z</time>
      </trkpt>
      <trkpt lat="46.18988" lon="6.60194">
        <ele>2005.2889404297</ele>
        <time>2019-03-03T14:26:11Z</time>
      </trkpt>
      <trkpt lat="46.1901" lon="6.60207">
        <ele>1996.7850341797</ele>
        <time>2019-03-03T14:26:18Z</time>
      </trkpt>
      <trkpt lat="46.19023" lon="6.60224">
        <ele>1982.8280029297</ele>
        <time>2019-03-03T14:26:25Z</time>
      </trkpt>
      <trkpt lat="46.19041" lon="6.60246">
        <ele>1965.1409912109</ele>
        <time>2019-03-03T14:26:32Z</time>
      </trkpt>
      <trkpt lat="46.19069" lon="6.60242">
        <ele>1948.0980224609</ele>
        <time>2019-03-03T14:26:38Z</time>
      </trkpt>
      <trkpt lat="46.19066" lon="6.60252">
        <ele>1932.2580566406</ele>
        <time>2019-03-03T14:28:28Z</time>
      </trkpt>
      <trkpt lat="46.19063" lon="6.60262">
        <ele>1929.6829833984</ele>
        <time>2019-03-03T14:28:41Z</time>
      </trkpt>
      <trkpt lat="46.19063" lon="6.60272">
        <ele>1925.8690185547</ele>
        <time>2019-03-03T14:28:53Z</time>
      </trkpt>
      <trkpt lat="46.19063" lon="6.60283">
        <ele>1924.0279541016</ele>
        <time>2019-03-03T14:29:04Z</time>
      </trkpt>
      <trkpt lat="46.19071" lon="6.60307">
        <ele>1922.5550537109</ele>
        <time>2019-03-03T14:29:12Z</time>
      </trkpt>
      <trkpt lat="46.1908" lon="6.60328">
        <ele>1921.0119628906</ele>
        <time>2019-03-03T14:29:17Z</time>
      </trkpt>
      <trkpt lat="46.19084" lon="6.60341">
        <ele>1920.0140380859</ele>
        <time>2019-03-03T14:29:19Z</time>
      </trkpt>
      <trkpt lat="46.19092" lon="6.60375">
        <ele>1919.3420410156</ele>
        <time>2019-03-03T14:29:26Z</time>
      </trkpt>
      <trkpt lat="46.19095" lon="6.60387">
        <ele>1921.7919921875</ele>
        <time>2019-03-03T14:30:26Z</time>
      </trkpt>
      <trkpt lat="46.19103" lon="6.60409">
        <ele>1925.0600585938</ele>
        <time>2019-03-03T14:30:31Z</time>
      </trkpt>
      <trkpt lat="46.19132" lon="6.6042">
        <ele>1923.6669921875</ele>
        <time>2019-03-03T14:30:37Z</time>
      </trkpt>
      <trkpt lat="46.19155" lon="6.60432">
        <ele>1910.7159423828</ele>
        <time>2019-03-03T14:30:43Z</time>
      </trkpt>
      <trkpt lat="46.19155" lon="6.60458">
        <ele>1903.8709716797</ele>
        <time>2019-03-03T14:30:47Z</time>
      </trkpt>
      <trkpt lat="46.19158" lon="6.60486">
        <ele>1895.41796875</ele>
        <time>2019-03-03T14:30:52Z</time>
      </trkpt>
      <trkpt lat="46.1918" lon="6.60512">
        <ele>1885.4759521484</ele>
        <time>2019-03-03T14:31:00Z</time>
      </trkpt>
      <trkpt lat="46.19198" lon="6.60516">
        <ele>1872.9969482422</ele>
        <time>2019-03-03T14:31:06Z</time>
      </trkpt>
      <trkpt lat="46.19208" lon="6.60519">
        <ele>1863.6870117188</ele>
        <time>2019-03-03T14:31:09Z</time>
      </trkpt>
      <trkpt lat="46.1924" lon="6.60523">
        <ele>1844.6650390625</ele>
        <time>2019-03-03T14:31:16Z</time>
      </trkpt>
      <trkpt lat="46.19272" lon="6.6052">
        <ele>1831.2030029297</ele>
        <time>2019-03-03T14:31:22Z</time>
      </trkpt>
      <trkpt lat="46.19288" lon="6.6053">
        <ele>1821.7900390625</ele>
        <time>2019-03-03T14:31:26Z</time>
      </trkpt>
      <trkpt lat="46.19293" lon="6.60548">
        <ele>1814.0200195312</ele>
        <time>2019-03-03T14:31:33Z</time>
      </trkpt>
      <trkpt lat="46.19294" lon="6.60559">
        <ele>1808.2740478516</ele>
        <time>2019-03-03T14:32:50Z</time>
      </trkpt>
      <trkpt lat="46.1932" lon="6.60585">
        <ele>1800.0670166016</ele>
        <time>2019-03-03T14:32:56Z</time>
      </trkpt>
      <trkpt lat="46.19346" lon="6.60608">
        <ele>1791.291015625</ele>
        <time>2019-03-03T14:33:02Z</time>
      </trkpt>
      <trkpt lat="46.19378" lon="6.60632">
        <ele>1784.2600097656</ele>
        <time>2019-03-03T14:33:08Z</time>
      </trkpt>
      <trkpt lat="46.19415" lon="6.60661">
        <ele>1774.9090576172</ele>
        <time>2019-03-03T14:33:14Z</time>
      </trkpt>
      <trkpt lat="46.19438" lon="6.60679">
        <ele>1761.8869628906</ele>
        <time>2019-03-03T14:33:20Z</time>
      </trkpt>
      <trkpt lat="46.19468" lon="6.60702">
        <ele>1756.6350097656</ele>
        <time>2019-03-03T14:33:25Z</time>
      </trkpt>
      <trkpt lat="46.19487" lon="6.60721">
        <ele>1747.9010009766</ele>
        <time>2019-03-03T14:33:29Z</time>
      </trkpt>
      <trkpt lat="46.19508" lon="6.60748">
        <ele>1736.6300048828</ele>
        <time>2019-03-03T14:34:50Z</time>
      </trkpt>
      <trkpt lat="46.19504" lon="6.60787">
        <ele>1725.1199951172</ele>
        <time>2019-03-03T14:34:56Z</time>
      </trkpt>
      <trkpt lat="46.19514" lon="6.6082">
        <ele>1721.3420410156</ele>
        <time>2019-03-03T14:35:03Z</time>
      </trkpt>
      <trkpt lat="46.19517" lon="6.60831">
        <ele>1721.0550537109</ele>
        <time>2019-03-03T14:35:06Z</time>
      </trkpt>
      <trkpt lat="46.19526" lon="6.60849">
        <ele>1720.8330078125</ele>
        <time>2019-03-03T14:35:14Z</time>
      </trkpt>
      <trkpt lat="46.19531" lon="6.60866">
        <ele>1721.2099609375</ele>
        <time>2019-03-03T14:35:41Z</time>
      </trkpt>
      <trkpt lat="46.19539" lon="6.60873">
        <ele>1721.1510009766</ele>
        <time>2019-03-03T14:35:44Z</time>
      </trkpt>
      <trkpt lat="46.19555" lon="6.60889">
        <ele>1719.9770507812</ele>
        <time>2019-03-03T14:35:51Z</time>
      </trkpt>
      <trkpt lat="46.19564" lon="6.60896">
        <ele>1718.3990478516</ele>
        <time>2019-03-03T14:35:57Z</time>
      </trkpt>
      <trkpt lat="46.1958" lon="6.60897">
        <ele>1703.7330322266</ele>
        <time>2019-03-03T14:36:05Z</time>
      </trkpt>
      <trkpt lat="46.19584" lon="6.60879">
        <ele>1699.3680419922</ele>
        <time>2019-03-03T14:36:48Z</time>
      </trkpt>
      <trkpt lat="46.19599" lon="6.60877">
        <ele>1682.5169677734</ele>
        <time>2019-03-03T14:36:54Z</time>
      </trkpt>
      <trkpt lat="46.19614" lon="6.60862">
        <ele>1669.8979492188</ele>
        <time>2019-03-03T14:36:59Z</time>
      </trkpt>
      <trkpt lat="46.19626" lon="6.60833">
        <ele>1650.8969726562</ele>
        <time>2019-03-03T14:37:06Z</time>
      </trkpt>
      <trkpt lat="46.19636" lon="6.60819">
        <ele>1642.9360351562</ele>
        <time>2019-03-03T14:37:11Z</time>
      </trkpt>
      <trkpt lat="46.19644" lon="6.60835">
        <ele>1634.4439697266</ele>
        <time>2019-03-03T14:37:32Z</time>
      </trkpt>
      <trkpt lat="46.19654" lon="6.60851">
        <ele>1632.0059814453</ele>
        <time>2019-03-03T14:37:39Z</time>
      </trkpt>
      <trkpt lat="46.19662" lon="6.60862">
        <ele>1629.4739990234</ele>
        <time>2019-03-03T14:37:42Z</time>
      </trkpt>
      <trkpt lat="46.19683" lon="6.60854">
        <ele>1623.1009521484</ele>
        <time>2019-03-03T14:37:47Z</time>
      </trkpt>
      <trkpt lat="46.19691" lon="6.60846">
        <ele>1622.2399902344</ele>
        <time>2019-03-03T14:37:48Z</time>
      </trkpt>
      <trkpt lat="46.19704" lon="6.60828">
        <ele>1617.1340332031</ele>
        <time>2019-03-03T14:37:54Z</time>
      </trkpt>
      <trkpt lat="46.19719" lon="6.60827">
        <ele>1609.3649902344</ele>
        <time>2019-03-03T14:37:59Z</time>
      </trkpt>
      <trkpt lat="46.19728" lon="6.60827">
        <ele>1608.8380126953</ele>
        <time>2019-03-03T14:38:03Z</time>
      </trkpt>
      <trkpt lat="46.19729" lon="6.60814">
        <ele>1604.7790527344</ele>
        <time>2019-03-03T14:40:04Z</time>
      </trkpt>
      <trkpt lat="46.19744" lon="6.60803">
        <ele>1597.8900146484</ele>
        <time>2019-03-03T14:40:11Z</time>
      </trkpt>
      <trkpt lat="46.19759" lon="6.60795">
        <ele>1595.9749755859</ele>
        <time>2019-03-03T14:40:15Z</time>
      </trkpt>
      <trkpt lat="46.19784" lon="6.60768">
        <ele>1584.6850585938</ele>
        <time>2019-03-03T14:40:22Z</time>
      </trkpt>
      <trkpt lat="46.19798" lon="6.60754">
        <ele>1583.3699951172</ele>
        <time>2019-03-03T14:40:27Z</time>
      </trkpt>
      <trkpt lat="46.19816" lon="6.60743">
        <ele>1582.9029541016</ele>
        <time>2019-03-03T14:40:34Z</time>
      </trkpt>
      <trkpt lat="46.19834" lon="6.60738">
        <ele>1582.1579589844</ele>
        <time>2019-03-03T14:40:39Z</time>
      </trkpt>
      <trkpt lat="46.19848" lon="6.60728">
        <ele>1582.5970458984</ele>
        <time>2019-03-03T14:41:08Z</time>
      </trkpt>
      <trkpt lat="46.19862" lon="6.60718">
        <ele>1582.2419433594</ele>
        <time>2019-03-03T14:41:15Z</time>
      </trkpt>
      <trkpt lat="46.19876" lon="6.60713">
        <ele>1581.2199707031</ele>
        <time>2019-03-03T14:41:22Z</time>
      </trkpt>
      <trkpt lat="46.1989" lon="6.607">
        <ele>1579.6949462891</ele>
        <time>2019-03-03T14:41:27Z</time>
      </trkpt>
      <trkpt lat="46.199" lon="6.60672">
        <ele>1569.9210205078</ele>
        <time>2019-03-03T14:41:32Z</time>
      </trkpt>
      <trkpt lat="46.19915" lon="6.60651">
        <ele>1561.1140136719</ele>
        <time>2019-03-03T14:41:36Z</time>
      </trkpt>
      <trkpt lat="46.19926" lon="6.60635">
        <ele>1557.4010009766</ele>
        <time>2019-03-03T14:41:43Z</time>
      </trkpt>
      <trkpt lat="46.19927" lon="6.60624">
        <ele>1555.0229492188</ele>
        <time>2019-03-03T14:42:32Z</time>
      </trkpt>
      <trkpt lat="46.19927" lon="6.60613">
        <ele>1554.3270263672</ele>
        <time>2019-03-03T14:42:51Z</time>
      </trkpt>
      <trkpt lat="46.19932" lon="6.60604">
        <ele>1556.0460205078</ele>
        <time>2019-03-03T14:44:03Z</time>
      </trkpt>
      <trkpt lat="46.19934" lon="6.60578">
        <ele>1556.66796875</ele>
        <time>2019-03-03T14:44:08Z</time>
      </trkpt>
      <trkpt lat="46.19939" lon="6.60569">
        <ele>1555.8969726562</ele>
        <time>2019-03-03T14:44:14Z</time>
      </trkpt>
      <trkpt lat="46.19945" lon="6.60564">
        <ele>1552.1750488281</ele>
        <time>2019-03-03T14:44:54Z</time>
      </trkpt>
      <trkpt lat="46.19952" lon="6.60559">
        <ele>1549.876953125</ele>
        <time>2019-03-03T14:45:06Z</time>
      </trkpt>
      <trkpt lat="46.19956" lon="6.6055">
        <ele>1548.8139648438</ele>
        <time>2019-03-03T14:45:14Z</time>
      </trkpt>
      <trkpt lat="46.19968" lon="6.60535">
        <ele>1548.1810302734</ele>
        <time>2019-03-03T14:45:23Z</time>
      </trkpt>
      <trkpt lat="46.19972" lon="6.60525">
        <ele>1547.8790283203</ele>
        <time>2019-03-03T14:45:42Z</time>
      </trkpt>
      <trkpt lat="46.19975" lon="6.60516">
        <ele>1548.1469726562</ele>
        <time>2019-03-03T14:46:26Z</time>
      </trkpt>
      <trkpt lat="46.19977" lon="6.60505">
        <ele>1546.8640136719</ele>
        <time>2019-03-03T14:46:42Z</time>
      </trkpt>
      <trkpt lat="46.19982" lon="6.60498">
        <ele>1546.2199707031</ele>
        <time>2019-03-03T14:47:04Z</time>
      </trkpt>
      <trkpt lat="46.19989" lon="6.6049">
        <ele>1546.4859619141</ele>
        <time>2019-03-03T14:47:15Z</time>
      </trkpt>
      <trkpt lat="46.19995" lon="6.60484">
        <ele>1546.6130371094</ele>
        <time>2019-03-03T14:47:34Z</time>
      </trkpt>
      <trkpt lat="46.19999" lon="6.60475">
        <ele>1548.1860351562</ele>
        <time>2019-03-03T14:47:47Z</time>
      </trkpt>
      <trkpt lat="46.20006" lon="6.60472">
        <ele>1549.125</ele>
        <time>2019-03-03T14:47:59Z</time>
      </trkpt>
      <trkpt lat="46.20013" lon="6.60466">
        <ele>1549.1729736328</ele>
        <time>2019-03-03T14:48:19Z</time>
      </trkpt>
      <trkpt lat="46.20018" lon="6.60458">
        <ele>1550.4820556641</ele>
        <time>2019-03-03T14:48:35Z</time>
      </trkpt>
      <trkpt lat="46.20024" lon="6.60451">
        <ele>1550.7659912109</ele>
        <time>2019-03-03T14:48:43Z</time>
      </trkpt>
      <trkpt lat="46.20031" lon="6.60446">
        <ele>1553.3859863281</ele>
        <time>2019-03-03T14:48:59Z</time>
      </trkpt>
      <trkpt lat="46.20036" lon="6.60439">
        <ele>1554.2850341797</ele>
        <time>2019-03-03T14:49:07Z</time>
      </trkpt>
      <trkpt lat="46.20041" lon="6.6043">
        <ele>1555.5529785156</ele>
        <time>2019-03-03T14:49:18Z</time>
      </trkpt>
      <trkpt lat="46.20041" lon="6.60419">
        <ele>1555.8599853516</ele>
        <time>2019-03-03T14:49:28Z</time>
      </trkpt>
      <trkpt lat="46.2004" lon="6.60409">
        <ele>1560.3819580078</ele>
        <time>2019-03-03T14:51:59Z</time>
      </trkpt>
      <trkpt lat="46.20038" lon="6.60385">
        <ele>1560.6309814453</ele>
        <time>2019-03-03T14:52:05Z</time>
      </trkpt>
      <trkpt lat="46.20031" lon="6.60348">
        <ele>1560.3869628906</ele>
        <time>2019-03-03T14:52:11Z</time>
      </trkpt>
      <trkpt lat="46.20025" lon="6.60323">
        <ele>1559.8680419922</ele>
        <time>2019-03-03T14:52:16Z</time>
      </trkpt>
      <trkpt lat="46.20022" lon="6.60309">
        <ele>1559.7239990234</ele>
        <time>2019-03-03T14:52:19Z</time>
      </trkpt>
      <trkpt lat="46.20019" lon="6.60286">
        <ele>1559.4239501953</ele>
        <time>2019-03-03T14:52:25Z</time>
      </trkpt>
      <trkpt lat="46.20019" lon="6.60274">
        <ele>1559.16796875</ele>
        <time>2019-03-03T14:52:28Z</time>
      </trkpt>
      <trkpt lat="46.20019" lon="6.6025">
        <ele>1558.4560546875</ele>
        <time>2019-03-03T14:52:34Z</time>
      </trkpt>
      <trkpt lat="46.20024" lon="6.60226">
        <ele>1557.9460449219</ele>
        <time>2019-03-03T14:52:41Z</time>
      </trkpt>
      <trkpt lat="46.2003" lon="6.60204">
        <ele>1557.2540283203</ele>
        <time>2019-03-03T14:52:47Z</time>
      </trkpt>
      <trkpt lat="46.20037" lon="6.60195">
        <ele>1555.7719726562</ele>
        <time>2019-03-03T14:53:11Z</time>
      </trkpt>
      <trkpt lat="46.20035" lon="6.6017">
        <ele>1545.5639648438</ele>
        <time>2019-03-03T14:53:16Z</time>
      </trkpt>
      <trkpt lat="46.20021" lon="6.60149">
        <ele>1540.4489746094</ele>
        <time>2019-03-03T14:53:20Z</time>
      </trkpt>
      <trkpt lat="46.20006" lon="6.60153">
        <ele>1538.8470458984</ele>
        <time>2019-03-03T14:53:33Z</time>
      </trkpt>
      <trkpt lat="46.20014" lon="6.60151">
        <ele>1537.2800292969</ele>
        <time>2019-03-03T14:57:39Z</time>
      </trkpt>
      <trkpt lat="46.2003" lon="6.60143">
        <ele>1537.6219482422</ele>
        <time>2019-03-03T14:58:22Z</time>
      </trkpt>
      <trkpt lat="46.20032" lon="6.60132">
        <ele>1537.3890380859</ele>
        <time>2019-03-03T14:58:25Z</time>
      </trkpt>
      <trkpt lat="46.20028" lon="6.60092">
        <ele>1532.5119628906</ele>
        <time>2019-03-03T14:58:31Z</time>
      </trkpt>
      <trkpt lat="46.20031" lon="6.60045">
        <ele>1523.4919433594</ele>
        <time>2019-03-03T14:58:37Z</time>
      </trkpt>
      <trkpt lat="46.20035" lon="6.60002">
        <ele>1517.7139892578</ele>
        <time>2019-03-03T14:58:43Z</time>
      </trkpt>
      <trkpt lat="46.20049" lon="6.59959">
        <ele>1512.6999511719</ele>
        <time>2019-03-03T14:59:09Z</time>
      </trkpt>
      <trkpt lat="46.20059" lon="6.59937">
        <ele>1509.4410400391</ele>
        <time>2019-03-03T14:59:14Z</time>
      </trkpt>
      <trkpt lat="46.20056" lon="6.59923">
        <ele>1507.458984375</ele>
        <time>2019-03-03T14:59:17Z</time>
      </trkpt>
      <trkpt lat="46.20032" lon="6.59916">
        <ele>1501.6600341797</ele>
        <time>2019-03-03T14:59:27Z</time>
      </trkpt>
      <trkpt lat="46.2003" lon="6.59889">
        <ele>1491.6330566406</ele>
        <time>2019-03-03T14:59:32Z</time>
      </trkpt>
      <trkpt lat="46.20028" lon="6.59878">
        <ele>1491.2309570312</ele>
        <time>2019-03-03T14:59:35Z</time>
      </trkpt>
      <trkpt lat="46.20024" lon="6.5984">
        <ele>1485.1870117188</ele>
        <time>2019-03-03T14:59:41Z</time>
      </trkpt>
      <trkpt lat="46.20025" lon="6.59826">
        <ele>1484.16796875</ele>
        <time>2019-03-03T14:59:46Z</time>
      </trkpt>
      <trkpt lat="46.20018" lon="6.59819">
        <ele>1480.9379882812</ele>
        <time>2019-03-03T14:59:51Z</time>
      </trkpt>
      <trkpt lat="46.20013" lon="6.59809">
        <ele>1479.7010498047</ele>
        <time>2019-03-03T15:00:09Z</time>
      </trkpt>
      <trkpt lat="46.20008" lon="6.59784">
        <ele>1478.9759521484</ele>
        <time>2019-03-03T15:00:17Z</time>
      </trkpt>
      <trkpt lat="46.20006" lon="6.59773">
        <ele>1475.0250244141</ele>
        <time>2019-03-03T15:00:22Z</time>
      </trkpt>
      <trkpt lat="46.20007" lon="6.59762">
        <ele>1474.1879882812</ele>
        <time>2019-03-03T15:00:26Z</time>
      </trkpt>
      <trkpt lat="46.20001" lon="6.59736">
        <ele>1461.4310302734</ele>
        <time>2019-03-03T15:00:33Z</time>
      </trkpt>
      <trkpt lat="46.2" lon="6.59723">
        <ele>1458.9539794922</ele>
        <time>2019-03-03T15:00:43Z</time>
      </trkpt>
      <trkpt lat="46.2" lon="6.597">
        <ele>1455.541015625</ele>
        <time>2019-03-03T15:00:49Z</time>
      </trkpt>
      <trkpt lat="46.20002" lon="6.59688">
        <ele>1451.9770507812</ele>
        <time>2019-03-03T15:00:55Z</time>
      </trkpt>
      <trkpt lat="46.20001" lon="6.59674">
        <ele>1442.9339599609</ele>
        <time>2019-03-03T15:01:00Z</time>
      </trkpt>
      <trkpt lat="46.20005" lon="6.59663">
        <ele>1434.0090332031</ele>
        <time>2019-03-03T15:01:05Z</time>
      </trkpt>
      <trkpt lat="46.20001" lon="6.59627">
        <ele>1414.0500488281</ele>
        <time>2019-03-03T15:01:11Z</time>
      </trkpt>
      <trkpt lat="46.19998" lon="6.59617">
        <ele>1409.4210205078</ele>
        <time>2019-03-03T15:01:53Z</time>
      </trkpt>
      <trkpt lat="46.19987" lon="6.596">
        <ele>1395.3050537109</ele>
        <time>2019-03-03T15:01:57Z</time>
      </trkpt>
      <trkpt lat="46.19973" lon="6.59565">
        <ele>1397.0069580078</ele>
        <time>2019-03-03T15:02:03Z</time>
      </trkpt>
      <trkpt lat="46.19964" lon="6.59525">
        <ele>1397.7359619141</ele>
        <time>2019-03-03T15:02:09Z</time>
      </trkpt>
      <trkpt lat="46.19962" lon="6.59497">
        <ele>1393.9200439453</ele>
        <time>2019-03-03T15:02:14Z</time>
      </trkpt>
      <trkpt lat="46.19958" lon="6.5946">
        <ele>1386.0400390625</ele>
        <time>2019-03-03T15:02:20Z</time>
      </trkpt>
      <trkpt lat="46.19962" lon="6.59433">
        <ele>1375.4720458984</ele>
        <time>2019-03-03T15:02:26Z</time>
      </trkpt>
      <trkpt lat="46.1996" lon="6.5939">
        <ele>1360.4820556641</ele>
        <time>2019-03-03T15:02:32Z</time>
      </trkpt>
      <trkpt lat="46.19953" lon="6.59354">
        <ele>1356.0069580078</ele>
        <time>2019-03-03T15:02:37Z</time>
      </trkpt>
      <trkpt lat="46.19942" lon="6.59308">
        <ele>1346.1850585938</ele>
        <time>2019-03-03T15:02:42Z</time>
      </trkpt>
      <trkpt lat="46.19942" lon="6.5929">
        <ele>1341.1750488281</ele>
        <time>2019-03-03T15:02:44Z</time>
      </trkpt>
      <trkpt lat="46.19942" lon="6.59258">
        <ele>1328.3709716797</ele>
        <time>2019-03-03T15:02:49Z</time>
      </trkpt>
      <trkpt lat="46.19958" lon="6.5923">
        <ele>1312.7879638672</ele>
        <time>2019-03-03T15:03:52Z</time>
      </trkpt>
      <trkpt lat="46.19981" lon="6.59199">
        <ele>1301.0140380859</ele>
        <time>2019-03-03T15:03:57Z</time>
      </trkpt>
      <trkpt lat="46.20011" lon="6.59152">
        <ele>1293.0350341797</ele>
        <time>2019-03-03T15:04:02Z</time>
      </trkpt>
      <trkpt lat="46.20029" lon="6.5912">
        <ele>1287.8509521484</ele>
        <time>2019-03-03T15:04:05Z</time>
      </trkpt>
      <trkpt lat="46.20061" lon="6.59071">
        <ele>1281.3740234375</ele>
        <time>2019-03-03T15:04:10Z</time>
      </trkpt>
      <trkpt lat="46.20082" lon="6.59052">
        <ele>1279.0369873047</ele>
        <time>2019-03-03T15:04:13Z</time>
      </trkpt>
      <trkpt lat="46.20112" lon="6.59017">
        <ele>1274.4399414062</ele>
        <time>2019-03-03T15:04:19Z</time>
      </trkpt>
      <trkpt lat="46.20121" lon="6.59008">
        <ele>1273.5240478516</ele>
        <time>2019-03-03T15:04:21Z</time>
      </trkpt>
      <trkpt lat="46.20144" lon="6.58979">
        <ele>1269.9749755859</ele>
        <time>2019-03-03T15:04:27Z</time>
      </trkpt>
      <trkpt lat="46.20159" lon="6.58962">
        <ele>1268.9549560547</ele>
        <time>2019-03-03T15:04:31Z</time>
      </trkpt>
      <trkpt lat="46.20171" lon="6.58946">
        <ele>1267.6700439453</ele>
        <time>2019-03-03T15:04:36Z</time>
      </trkpt>
      <trkpt lat="46.20184" lon="6.58934">
        <ele>1265.9460449219</ele>
        <time>2019-03-03T15:04:42Z</time>
      </trkpt>
      <trkpt lat="46.20199" lon="6.58921">
        <ele>1264.1700439453</ele>
        <time>2019-03-03T15:04:48Z</time>
      </trkpt>
      <trkpt lat="46.20209" lon="6.58903">
        <ele>1263.7900390625</ele>
        <time>2019-03-03T15:04:52Z</time>
      </trkpt>
      <trkpt lat="46.20217" lon="6.58883">
        <ele>1263.9739990234</ele>
        <time>2019-03-03T15:04:57Z</time>
      </trkpt>
      <trkpt lat="46.20219" lon="6.58872">
        <ele>1264.2939453125</ele>
        <time>2019-03-03T15:05:00Z</time>
      </trkpt>
      <trkpt lat="46.20225" lon="6.58852">
        <ele>1265.4840087891</ele>
        <time>2019-03-03T15:05:08Z</time>
      </trkpt>
      <trkpt lat="46.20229" lon="6.58841">
        <ele>1265.5350341797</ele>
        <time>2019-03-03T15:05:13Z</time>
      </trkpt>
      <trkpt lat="46.20234" lon="6.5882">
        <ele>1265.875</ele>
        <time>2019-03-03T15:05:21Z</time>
      </trkpt>
      <trkpt lat="46.20237" lon="6.58798">
        <ele>1266.4859619141</ele>
        <time>2019-03-03T15:05:28Z</time>
      </trkpt>
      <trkpt lat="46.20241" lon="6.58776">
        <ele>1267.0219726562</ele>
        <time>2019-03-03T15:05:33Z</time>
      </trkpt>
      <trkpt lat="46.20247" lon="6.58754">
        <ele>1267.0710449219</ele>
        <time>2019-03-03T15:05:43Z</time>
      </trkpt>
      <trkpt lat="46.20251" lon="6.58742">
        <ele>1266.8850097656</ele>
        <time>2019-03-03T15:05:48Z</time>
      </trkpt>
      <trkpt lat="46.20259" lon="6.58718">
        <ele>1267.20703125</ele>
        <time>2019-03-03T15:05:53Z</time>
      </trkpt>
      <trkpt lat="46.20264" lon="6.58705">
        <ele>1267.4930419922</ele>
        <time>2019-03-03T15:05:56Z</time>
      </trkpt>
      <trkpt lat="46.20274" lon="6.58683">
        <ele>1267.9289550781</ele>
        <time>2019-03-03T15:06:03Z</time>
      </trkpt>
      <trkpt lat="46.20282" lon="6.58662">
        <ele>1268.2230224609</ele>
        <time>2019-03-03T15:06:09Z</time>
      </trkpt>
      <trkpt lat="46.20297" lon="6.58649">
        <ele>1267.875</ele>
        <time>2019-03-03T15:06:16Z</time>
      </trkpt>
      <trkpt lat="46.20306" lon="6.58641">
        <ele>1267.541015625</ele>
        <time>2019-03-03T15:06:17Z</time>
      </trkpt>
      <trkpt lat="46.20327" lon="6.58616">
        <ele>1265.0450439453</ele>
        <time>2019-03-03T15:06:24Z</time>
      </trkpt>
      <trkpt lat="46.20351" lon="6.58604">
        <ele>1260.4429931641</ele>
        <time>2019-03-03T15:06:29Z</time>
      </trkpt>
      <trkpt lat="46.20378" lon="6.5859">
        <ele>1259.6440429688</ele>
        <time>2019-03-03T15:06:36Z</time>
      </trkpt>
      <trkpt lat="46.2041" lon="6.5855">
        <ele>1258.9759521484</ele>
        <time>2019-03-03T15:06:41Z</time>
      </trkpt>
      <trkpt lat="46.20433" lon="6.58503">
        <ele>1244.4709472656</ele>
        <time>2019-03-03T15:06:48Z</time>
      </trkpt>
      <trkpt lat="46.2044" lon="6.58497">
        <ele>1243.4539794922</ele>
        <time>2019-03-03T15:06:48Z</time>
      </trkpt>
      <trkpt lat="46.20482" lon="6.58466">
        <ele>1234.083984375</ele>
        <time>2019-03-03T15:06:55Z</time>
      </trkpt>
      <trkpt lat="46.2051" lon="6.58429">
        <ele>1222.7459716797</ele>
        <time>2019-03-03T15:07:00Z</time>
      </trkpt>
      <trkpt lat="46.20538" lon="6.58396">
        <ele>1211.2159423828</ele>
        <time>2019-03-03T15:07:04Z</time>
      </trkpt>
      <trkpt lat="46.20575" lon="6.58358">
        <ele>1203.6219482422</ele>
        <time>2019-03-03T15:07:09Z</time>
      </trkpt>
      <trkpt lat="46.20601" lon="6.5831">
        <ele>1195.2860107422</ele>
        <time>2019-03-03T15:07:15Z</time>
      </trkpt>
      <trkpt lat="46.20632" lon="6.58265">
        <ele>1187.4129638672</ele>
        <time>2019-03-03T15:07:20Z</time>
      </trkpt>
      <trkpt lat="46.20662" lon="6.5822">
        <ele>1180.126953125</ele>
        <time>2019-03-03T15:07:24Z</time>
      </trkpt>
      <trkpt lat="46.20689" lon="6.58177">
        <ele>1175.7559814453</ele>
        <time>2019-03-03T15:07:29Z</time>
      </trkpt>
      <trkpt lat="46.20713" lon="6.58133">
        <ele>1169.3580322266</ele>
        <time>2019-03-03T15:07:35Z</time>
      </trkpt>
      <trkpt lat="46.20726" lon="6.58109">
        <ele>1166.1650390625</ele>
        <time>2019-03-03T15:07:37Z</time>
      </trkpt>
      <trkpt lat="46.20749" lon="6.58062">
        <ele>1161.1560058594</ele>
        <time>2019-03-03T15:07:44Z</time>
      </trkpt>
      <trkpt lat="46.20756" lon="6.5805">
        <ele>1159.4510498047</ele>
        <time>2019-03-03T15:07:45Z</time>
      </trkpt>
      <trkpt lat="46.20782" lon="6.58015">
        <ele>1160.3409423828</ele>
        <time>2019-03-03T15:07:52Z</time>
      </trkpt>
      <trkpt lat="46.20812" lon="6.57982">
        <ele>1159.3249511719</ele>
        <time>2019-03-03T15:07:56Z</time>
      </trkpt>
      <trkpt lat="46.20852" lon="6.57942">
        <ele>1157.6070556641</ele>
        <time>2019-03-03T15:08:01Z</time>
      </trkpt>
      <trkpt lat="46.20875" lon="6.579">
        <ele>1149.376953125</ele>
        <time>2019-03-03T15:08:07Z</time>
      </trkpt>
      <trkpt lat="46.2089" lon="6.57859">
        <ele>1143.95703125</ele>
        <time>2019-03-03T15:08:12Z</time>
      </trkpt>
      <trkpt lat="46.209" lon="6.57813">
        <ele>1142.8630371094</ele>
        <time>2019-03-03T15:08:17Z</time>
      </trkpt>
      <trkpt lat="46.20905" lon="6.57783">
        <ele>1143.8179931641</ele>
        <time>2019-03-03T15:08:20Z</time>
      </trkpt>
      <trkpt lat="46.20914" lon="6.57738">
        <ele>1139.3940429688</ele>
        <time>2019-03-03T15:08:27Z</time>
      </trkpt>
      <trkpt lat="46.20922" lon="6.57705">
        <ele>1136.7540283203</ele>
        <time>2019-03-03T15:08:32Z</time>
      </trkpt>
      <trkpt lat="46.20931" lon="6.57684">
        <ele>1136.5190429688</ele>
        <time>2019-03-03T15:08:37Z</time>
      </trkpt>
      <trkpt lat="46.20936" lon="6.57648">
        <ele>1134.9560546875</ele>
        <time>2019-03-03T15:08:44Z</time>
      </trkpt>
      <trkpt lat="46.20931" lon="6.57626">
        <ele>1133.7199707031</ele>
        <time>2019-03-03T15:08:48Z</time>
      </trkpt>
      <trkpt lat="46.20935" lon="6.57617">
        <ele>1130.3790283203</ele>
        <time>2019-03-03T15:10:16Z</time>
      </trkpt>
      <trkpt lat="46.20946" lon="6.57612">
        <ele>1131.1450195312</ele>
        <time>2019-03-03T15:10:28Z</time>
      </trkpt>
      <trkpt lat="46.20958" lon="6.57609">
        <ele>1131.6300048828</ele>
        <time>2019-03-03T15:10:40Z</time>
      </trkpt>
      <trkpt lat="46.20966" lon="6.57604">
        <ele>1131.1409912109</ele>
        <time>2019-03-03T15:10:48Z</time>
      </trkpt>
      <trkpt lat="46.20973" lon="6.57599">
        <ele>1130.6209716797</ele>
        <time>2019-03-03T15:10:59Z</time>
      </trkpt>
      <trkpt lat="46.2098" lon="6.57595">
        <ele>1130.3360595703</ele>
        <time>2019-03-03T15:11:05Z</time>
      </trkpt>
      <trkpt lat="46.20987" lon="6.5759">
        <ele>1130.0789794922</ele>
        <time>2019-03-03T15:11:15Z</time>
      </trkpt>
      <trkpt lat="46.20992" lon="6.57574">
        <ele>1128.45703125</ele>
        <time>2019-03-03T15:11:28Z</time>
      </trkpt>
      <trkpt lat="46.20998" lon="6.5757">
        <ele>1129.0250244141</ele>
        <time>2019-03-03T15:13:28Z</time>
      </trkpt>
    </trkseg>
  </trk>
</gpx>